<?xml version="1.0" encoding="UTF-8" standalone="no" ?>
<gpx xmlns="http://www.topografix.com/GPX/1/1" xmlns:xsi="http://www.w3.org/2001/XMLSchema-instance" xsi:schemaLocation="http://www.topografix.com/GPX/1/1 http://www.topografix.com/GPX/1/1/gpx.xsd" version="1.1" creator="VisuGPX - https://www.visugpx.com">
  <metadata>
    <name>Saint-Bertrand-de-Comminges - Randonnée autour de Saint-Bertrand-de-Comminges</name>
    <desc><![CDATA[Boucle autour de Saint-Bertrand-de-Comminges. Passage par le Mail de Hard et le gouffre de Lespugues.
Beaux points de vue. La visite de Saint-Bertrand-de-Comminges et son riche patrimoine s'impose (cathédrale, musée archéologique)]]></desc>
  </metadata>
  <trk>
    <name><![CDATA[Randonnée autour de Saint Bertrand-de-Comminges]]></name>
    <trkseg>
      <trkpt lat="43.02927" lon="0.5726">
        <ele>461.5</ele>
        <time>2019-12-05T08:41:04.000Z</time>
      </trkpt>
      <trkpt lat="43.02925" lon="0.5726">
        <ele>461.5</ele>
        <time>2019-12-05T08:41:17.000Z</time>
      </trkpt>
      <trkpt lat="43.02927" lon="0.57261">
        <ele>461.5</ele>
        <time>2019-12-05T08:41:24.000Z</time>
      </trkpt>
      <trkpt lat="43.02926" lon="0.5726">
        <ele>461.5</ele>
        <time>2019-12-05T08:41:36.000Z</time>
      </trkpt>
      <trkpt lat="43.02926" lon="0.5726">
        <ele>461.5</ele>
        <time>2019-12-05T08:41:49.000Z</time>
      </trkpt>
      <trkpt lat="43.02924" lon="0.57261">
        <ele>461.5</ele>
        <time>2019-12-05T08:42:05.000Z</time>
      </trkpt>
      <trkpt lat="43.0292" lon="0.57258">
        <ele>461.4</ele>
        <time>2019-12-05T08:42:28.000Z</time>
      </trkpt>
      <trkpt lat="43.02919" lon="0.57259">
        <ele>461.4</ele>
        <time>2019-12-05T08:42:47.000Z</time>
      </trkpt>
      <trkpt lat="43.02921" lon="0.57259">
        <ele>461.4</ele>
        <time>2019-12-05T08:43:05.000Z</time>
      </trkpt>
      <trkpt lat="43.02922" lon="0.5726">
        <ele>461.4</ele>
        <time>2019-12-05T08:43:24.000Z</time>
      </trkpt>
      <trkpt lat="43.02922" lon="0.57258">
        <ele>461.4</ele>
        <time>2019-12-05T08:43:49.000Z</time>
      </trkpt>
      <trkpt lat="43.02922" lon="0.57258">
        <ele>461.4</ele>
        <time>2019-12-05T08:44:09.000Z</time>
      </trkpt>
      <trkpt lat="43.02921" lon="0.57259">
        <ele>461.4</ele>
        <time>2019-12-05T08:44:36.000Z</time>
      </trkpt>
      <trkpt lat="43.02921" lon="0.5726">
        <ele>461.4</ele>
        <time>2019-12-05T08:45:00.000Z</time>
      </trkpt>
      <trkpt lat="43.02921" lon="0.5726">
        <ele>461.4</ele>
        <time>2019-12-05T08:45:21.000Z</time>
      </trkpt>
      <trkpt lat="43.02923" lon="0.57262">
        <ele>461.4</ele>
        <time>2019-12-05T08:45:45.000Z</time>
      </trkpt>
      <trkpt lat="43.02922" lon="0.57264">
        <ele>461.4</ele>
        <time>2019-12-05T08:46:06.000Z</time>
      </trkpt>
      <trkpt lat="43.02919" lon="0.57262">
        <ele>461.4</ele>
        <time>2019-12-05T08:46:25.000Z</time>
      </trkpt>
      <trkpt lat="43.02921" lon="0.57262">
        <ele>461.4</ele>
        <time>2019-12-05T08:46:46.000Z</time>
      </trkpt>
      <trkpt lat="43.02922" lon="0.57261">
        <ele>461.4</ele>
        <time>2019-12-05T08:47:12.000Z</time>
      </trkpt>
      <trkpt lat="43.02921" lon="0.5726">
        <ele>461.4</ele>
        <time>2019-12-05T08:47:31.000Z</time>
      </trkpt>
      <trkpt lat="43.02922" lon="0.57261">
        <ele>461.4</ele>
        <time>2019-12-05T08:47:47.000Z</time>
      </trkpt>
      <trkpt lat="43.02922" lon="0.57259">
        <ele>461.4</ele>
        <time>2019-12-05T08:48:01.000Z</time>
      </trkpt>
      <trkpt lat="43.02921" lon="0.57259">
        <ele>461.4</ele>
        <time>2019-12-05T08:48:25.000Z</time>
      </trkpt>
      <trkpt lat="43.02921" lon="0.57262">
        <ele>461.4</ele>
        <time>2019-12-05T08:48:38.000Z</time>
      </trkpt>
      <trkpt lat="43.02922" lon="0.57264">
        <ele>461.4</ele>
        <time>2019-12-05T08:49:05.000Z</time>
      </trkpt>
      <trkpt lat="43.02922" lon="0.57262">
        <ele>461.4</ele>
        <time>2019-12-05T08:49:27.000Z</time>
      </trkpt>
      <trkpt lat="43.0292" lon="0.5726">
        <ele>461.4</ele>
        <time>2019-12-05T08:49:48.000Z</time>
      </trkpt>
      <trkpt lat="43.02922" lon="0.57261">
        <ele>461.4</ele>
        <time>2019-12-05T08:50:06.000Z</time>
      </trkpt>
      <trkpt lat="43.02924" lon="0.57261">
        <ele>461.4</ele>
        <time>2019-12-05T08:50:27.000Z</time>
      </trkpt>
      <trkpt lat="43.02924" lon="0.57261">
        <ele>461.4</ele>
        <time>2019-12-05T08:50:43.000Z</time>
      </trkpt>
      <trkpt lat="43.02925" lon="0.57261">
        <ele>461.4</ele>
        <time>2019-12-05T08:51:03.000Z</time>
      </trkpt>
      <trkpt lat="43.02924" lon="0.5726">
        <ele>461.4</ele>
        <time>2019-12-05T08:51:21.000Z</time>
      </trkpt>
      <trkpt lat="43.02924" lon="0.57259">
        <ele>461.4</ele>
        <time>2019-12-05T08:51:34.000Z</time>
      </trkpt>
      <trkpt lat="43.02924" lon="0.57261">
        <ele>461.4</ele>
        <time>2019-12-05T08:51:44.000Z</time>
      </trkpt>
      <trkpt lat="43.02925" lon="0.57262">
        <ele>461.4</ele>
        <time>2019-12-05T08:51:56.000Z</time>
      </trkpt>
      <trkpt lat="43.02926" lon="0.57262">
        <ele>461.4</ele>
        <time>2019-12-05T08:52:06.000Z</time>
      </trkpt>
      <trkpt lat="43.02926" lon="0.57264">
        <ele>461.4</ele>
        <time>2019-12-05T08:52:23.000Z</time>
      </trkpt>
      <trkpt lat="43.02924" lon="0.57262">
        <ele>461.4</ele>
        <time>2019-12-05T08:52:36.000Z</time>
      </trkpt>
      <trkpt lat="43.02923" lon="0.57261">
        <ele>461.4</ele>
        <time>2019-12-05T08:52:44.000Z</time>
      </trkpt>
      <trkpt lat="43.02923" lon="0.57261">
        <ele>461.4</ele>
        <time>2019-12-05T08:52:50.000Z</time>
      </trkpt>
      <trkpt lat="43.02923" lon="0.57262">
        <ele>461.4</ele>
        <time>2019-12-05T08:53:00.000Z</time>
      </trkpt>
      <trkpt lat="43.02922" lon="0.57262">
        <ele>461.4</ele>
        <time>2019-12-05T08:53:06.000Z</time>
      </trkpt>
      <trkpt lat="43.02922" lon="0.57265">
        <ele>461.4</ele>
        <time>2019-12-05T08:53:20.000Z</time>
      </trkpt>
      <trkpt lat="43.02924" lon="0.57265">
        <ele>461.4</ele>
        <time>2019-12-05T08:53:26.000Z</time>
      </trkpt>
      <trkpt lat="43.02923" lon="0.57266">
        <ele>461.4</ele>
        <time>2019-12-05T08:53:36.000Z</time>
      </trkpt>
      <trkpt lat="43.02923" lon="0.57265">
        <ele>461.4</ele>
        <time>2019-12-05T08:53:47.000Z</time>
      </trkpt>
      <trkpt lat="43.02923" lon="0.57263">
        <ele>461.4</ele>
        <time>2019-12-05T08:53:56.000Z</time>
      </trkpt>
      <trkpt lat="43.02922" lon="0.57265">
        <ele>461.4</ele>
        <time>2019-12-05T08:54:08.000Z</time>
      </trkpt>
      <trkpt lat="43.02922" lon="0.57264">
        <ele>461.4</ele>
        <time>2019-12-05T08:54:18.000Z</time>
      </trkpt>
      <trkpt lat="43.02923" lon="0.57264">
        <ele>461.4</ele>
        <time>2019-12-05T08:54:28.000Z</time>
      </trkpt>
      <trkpt lat="43.02923" lon="0.57263">
        <ele>461.4</ele>
        <time>2019-12-05T08:54:38.000Z</time>
      </trkpt>
      <trkpt lat="43.02922" lon="0.57264">
        <ele>461.4</ele>
        <time>2019-12-05T08:54:47.000Z</time>
      </trkpt>
      <trkpt lat="43.02921" lon="0.57264">
        <ele>461.4</ele>
        <time>2019-12-05T08:54:58.000Z</time>
      </trkpt>
      <trkpt lat="43.02922" lon="0.57264">
        <ele>461.4</ele>
        <time>2019-12-05T08:55:09.000Z</time>
      </trkpt>
      <trkpt lat="43.02923" lon="0.57263">
        <ele>461.4</ele>
        <time>2019-12-05T08:55:19.000Z</time>
      </trkpt>
      <trkpt lat="43.02923" lon="0.57261">
        <ele>461.4</ele>
        <time>2019-12-05T08:55:34.000Z</time>
      </trkpt>
      <trkpt lat="43.02925" lon="0.57261">
        <ele>461.4</ele>
        <time>2019-12-05T08:55:41.000Z</time>
      </trkpt>
      <trkpt lat="43.02925" lon="0.57262">
        <ele>461.4</ele>
        <time>2019-12-05T08:55:56.000Z</time>
      </trkpt>
      <trkpt lat="43.02926" lon="0.57252">
        <ele>461.4</ele>
        <time>2019-12-05T08:56:04.000Z</time>
      </trkpt>
      <trkpt lat="43.0293" lon="0.57235">
        <ele>461.4</ele>
        <time>2019-12-05T08:56:16.000Z</time>
      </trkpt>
      <trkpt lat="43.02932" lon="0.57228">
        <ele>461.4</ele>
        <time>2019-12-05T08:56:22.000Z</time>
      </trkpt>
      <trkpt lat="43.02934" lon="0.5722">
        <ele>461.4</ele>
        <time>2019-12-05T08:56:27.000Z</time>
      </trkpt>
      <trkpt lat="43.02931" lon="0.57209">
        <ele>461.8</ele>
        <time>2019-12-05T08:56:37.497Z</time>
      </trkpt>
      <trkpt lat="43.02906" lon="0.57187">
        <ele>463</ele>
        <time>2019-12-05T08:57:14.052Z</time>
      </trkpt>
      <trkpt lat="43.02885" lon="0.5717">
        <ele>466</ele>
        <time>2019-12-05T08:57:43.050Z</time>
      </trkpt>
      <trkpt lat="43.02879" lon="0.57137">
        <ele>468.3</ele>
        <time>2019-12-05T08:58:13.863Z</time>
      </trkpt>
      <trkpt lat="43.02863" lon="0.57124">
        <ele>471.5</ele>
        <time>2019-12-05T08:58:35.246Z</time>
      </trkpt>
      <trkpt lat="43.02862" lon="0.57123">
        <ele>471.5</ele>
        <time>2019-12-05T08:58:36.696Z</time>
      </trkpt>
      <trkpt lat="43.02854" lon="0.5712">
        <ele>473.3</ele>
        <time>2019-12-05T08:58:47.214Z</time>
      </trkpt>
      <trkpt lat="43.02854" lon="0.57118">
        <ele>473</ele>
        <time>2019-12-05T08:58:49.916Z</time>
      </trkpt>
      <trkpt lat="43.0286" lon="0.57059">
        <ele>473</ele>
        <time>2019-12-05T08:59:50.618Z</time>
      </trkpt>
      <trkpt lat="43.02861" lon="0.57039">
        <ele>471.8</ele>
        <time>2019-12-05T09:00:11.593Z</time>
      </trkpt>
      <trkpt lat="43.02863" lon="0.57023">
        <ele>471.8</ele>
        <time>2019-12-05T09:00:28.543Z</time>
      </trkpt>
      <trkpt lat="43.02858" lon="0.56995">
        <ele>472</ele>
        <time>2019-12-05T09:00:57.917Z</time>
      </trkpt>
      <trkpt lat="43.02851" lon="0.56968">
        <ele>472</ele>
        <time>2019-12-05T09:01:27.919Z</time>
      </trkpt>
      <trkpt lat="43.0285" lon="0.56966">
        <ele>470.8</ele>
        <time>2019-12-05T09:01:31.006Z</time>
      </trkpt>
      <trkpt lat="43.02846" lon="0.56957">
        <ele>470.5</ele>
        <time>2019-12-05T09:01:41.500Z</time>
      </trkpt>
      <trkpt lat="43.02842" lon="0.56949">
        <ele>470.8</ele>
        <time>2019-12-05T09:01:48.500Z</time>
      </trkpt>
      <trkpt lat="43.02838" lon="0.5694">
        <ele>471.1</ele>
        <time>2019-12-05T09:01:57.500Z</time>
      </trkpt>
      <trkpt lat="43.02835" lon="0.56931">
        <ele>471.5</ele>
        <time>2019-12-05T09:02:06.500Z</time>
      </trkpt>
      <trkpt lat="43.02832" lon="0.56921">
        <ele>471.9</ele>
        <time>2019-12-05T09:02:14.500Z</time>
      </trkpt>
      <trkpt lat="43.02831" lon="0.5692">
        <ele>471.9</ele>
        <time>2019-12-05T09:02:15.500Z</time>
      </trkpt>
      <trkpt lat="43.02827" lon="0.56914">
        <ele>472.6</ele>
        <time>2019-12-05T09:02:21.500Z</time>
      </trkpt>
      <trkpt lat="43.02826" lon="0.56908">
        <ele>473</ele>
        <time>2019-12-05T09:02:29.500Z</time>
      </trkpt>
      <trkpt lat="43.02823" lon="0.56904">
        <ele>473.3</ele>
        <time>2019-12-05T09:02:36.500Z</time>
      </trkpt>
      <trkpt lat="43.02818" lon="0.56898">
        <ele>473.8</ele>
        <time>2019-12-05T09:02:44.500Z</time>
      </trkpt>
      <trkpt lat="43.02812" lon="0.56892">
        <ele>474.3</ele>
        <time>2019-12-05T09:02:52.500Z</time>
      </trkpt>
      <trkpt lat="43.028" lon="0.56879">
        <ele>475.4</ele>
        <time>2019-12-05T09:03:04.500Z</time>
      </trkpt>
      <trkpt lat="43.02799" lon="0.56877">
        <ele>475.5</ele>
        <time>2019-12-05T09:03:06.500Z</time>
      </trkpt>
      <trkpt lat="43.02796" lon="0.56867">
        <ele>475.8</ele>
        <time>2019-12-05T09:03:16.500Z</time>
      </trkpt>
      <trkpt lat="43.02797" lon="0.56868">
        <ele>475.8</ele>
        <time>2019-12-05T09:03:25.500Z</time>
      </trkpt>
      <trkpt lat="43.02797" lon="0.56867">
        <ele>475.8</ele>
        <time>2019-12-05T09:03:31.500Z</time>
      </trkpt>
      <trkpt lat="43.02797" lon="0.56863">
        <ele>475.9</ele>
        <time>2019-12-05T09:03:37.500Z</time>
      </trkpt>
      <trkpt lat="43.02798" lon="0.56856">
        <ele>476.1</ele>
        <time>2019-12-05T09:03:45.500Z</time>
      </trkpt>
      <trkpt lat="43.02799" lon="0.56852">
        <ele>476.2</ele>
        <time>2019-12-05T09:03:51.500Z</time>
      </trkpt>
      <trkpt lat="43.02799" lon="0.56848">
        <ele>476.3</ele>
        <time>2019-12-05T09:03:57.500Z</time>
      </trkpt>
      <trkpt lat="43.028" lon="0.56837">
        <ele>476.8</ele>
        <time>2019-12-05T09:04:08.500Z</time>
      </trkpt>
      <trkpt lat="43.02802" lon="0.56828">
        <ele>477.1</ele>
        <time>2019-12-05T09:04:16.500Z</time>
      </trkpt>
      <trkpt lat="43.02803" lon="0.56822">
        <ele>477.3</ele>
        <time>2019-12-05T09:04:23.500Z</time>
      </trkpt>
      <trkpt lat="43.02805" lon="0.56816">
        <ele>477.5</ele>
        <time>2019-12-05T09:04:29.500Z</time>
      </trkpt>
      <trkpt lat="43.02807" lon="0.56806">
        <ele>478</ele>
        <time>2019-12-05T09:04:37.500Z</time>
      </trkpt>
      <trkpt lat="43.02807" lon="0.56796">
        <ele>478.7</ele>
        <time>2019-12-05T09:04:46.500Z</time>
      </trkpt>
      <trkpt lat="43.02807" lon="0.56792">
        <ele>479.1</ele>
        <time>2019-12-05T09:04:54.500Z</time>
      </trkpt>
      <trkpt lat="43.02808" lon="0.56786">
        <ele>479.9</ele>
        <time>2019-12-05T09:05:02.500Z</time>
      </trkpt>
      <trkpt lat="43.02809" lon="0.56781">
        <ele>480.6</ele>
        <time>2019-12-05T09:05:11.500Z</time>
      </trkpt>
      <trkpt lat="43.02808" lon="0.56775">
        <ele>481.7</ele>
        <time>2019-12-05T09:05:19.500Z</time>
      </trkpt>
      <trkpt lat="43.02807" lon="0.56772">
        <ele>482.1</ele>
        <time>2019-12-05T09:05:25.500Z</time>
      </trkpt>
      <trkpt lat="43.02808" lon="0.56769">
        <ele>482.9</ele>
        <time>2019-12-05T09:05:34.500Z</time>
      </trkpt>
      <trkpt lat="43.02808" lon="0.56762">
        <ele>484.5</ele>
        <time>2019-12-05T09:05:45.500Z</time>
      </trkpt>
      <trkpt lat="43.02812" lon="0.56757">
        <ele>487.3</ele>
        <time>2019-12-05T09:05:54.719Z</time>
      </trkpt>
      <trkpt lat="43.02812" lon="0.56754">
        <ele>487.8</ele>
        <time>2019-12-05T09:05:58.279Z</time>
      </trkpt>
      <trkpt lat="43.02807" lon="0.56747">
        <ele>489.5</ele>
        <time>2019-12-05T09:06:10.081Z</time>
      </trkpt>
      <trkpt lat="43.02797" lon="0.56736">
        <ele>492.5</ele>
        <time>2019-12-05T09:06:32.243Z</time>
      </trkpt>
      <trkpt lat="43.02789" lon="0.56732">
        <ele>494</ele>
        <time>2019-12-05T09:06:47.129Z</time>
      </trkpt>
      <trkpt lat="43.02779" lon="0.56732">
        <ele>495</ele>
        <time>2019-12-05T09:07:05.027Z</time>
      </trkpt>
      <trkpt lat="43.02767" lon="0.56725">
        <ele>502</ele>
        <time>2019-12-05T09:07:27.173Z</time>
      </trkpt>
      <trkpt lat="43.02726" lon="0.56703">
        <ele>502</ele>
        <time>2019-12-05T09:08:42.195Z</time>
      </trkpt>
      <trkpt lat="43.02723" lon="0.56697">
        <ele>510</ele>
        <time>2019-12-05T09:08:50.421Z</time>
      </trkpt>
      <trkpt lat="43.02686" lon="0.56627">
        <ele>510</ele>
        <time>2019-12-05T09:10:38.995Z</time>
      </trkpt>
      <trkpt lat="43.02674" lon="0.56603">
        <ele>512.8</ele>
        <time>2019-12-05T09:11:06.858Z</time>
      </trkpt>
      <trkpt lat="43.02668" lon="0.56593">
        <ele>514.8</ele>
        <time>2019-12-05T09:11:18.770Z</time>
      </trkpt>
      <trkpt lat="43.02663" lon="0.56586">
        <ele>514.8</ele>
        <time>2019-12-05T09:11:27.284Z</time>
      </trkpt>
      <trkpt lat="43.02652" lon="0.56575">
        <ele>517</ele>
        <time>2019-12-05T09:11:48.381Z</time>
      </trkpt>
      <trkpt lat="43.02658" lon="0.5657">
        <ele>517.3</ele>
        <time>2019-12-05T09:11:58.995Z</time>
      </trkpt>
      <trkpt lat="43.02707" lon="0.56561">
        <ele>517.5</ele>
        <time>2019-12-05T09:13:10.987Z</time>
      </trkpt>
      <trkpt lat="43.02715" lon="0.56557">
        <ele>522</ele>
        <time>2019-12-05T09:13:24.701Z</time>
      </trkpt>
      <trkpt lat="43.0272" lon="0.56547">
        <ele>522.4</ele>
        <time>2019-12-05T09:13:34.701Z</time>
      </trkpt>
      <trkpt lat="43.02722" lon="0.56543">
        <ele>522.6</ele>
        <time>2019-12-05T09:13:37.701Z</time>
      </trkpt>
      <trkpt lat="43.02726" lon="0.56534">
        <ele>522.9</ele>
        <time>2019-12-05T09:13:46.701Z</time>
      </trkpt>
      <trkpt lat="43.02732" lon="0.56523">
        <ele>523.3</ele>
        <time>2019-12-05T09:13:55.701Z</time>
      </trkpt>
      <trkpt lat="43.02738" lon="0.56515">
        <ele>523.6</ele>
        <time>2019-12-05T09:14:06.701Z</time>
      </trkpt>
      <trkpt lat="43.02741" lon="0.56512">
        <ele>523.8</ele>
        <time>2019-12-05T09:14:13.701Z</time>
      </trkpt>
      <trkpt lat="43.02743" lon="0.56511">
        <ele>523.8</ele>
        <time>2019-12-05T09:14:20.701Z</time>
      </trkpt>
      <trkpt lat="43.02743" lon="0.5651">
        <ele>523.8</ele>
        <time>2019-12-05T09:14:27.701Z</time>
      </trkpt>
      <trkpt lat="43.02743" lon="0.56514">
        <ele>526.8</ele>
        <time>2019-12-05T09:14:32.791Z</time>
      </trkpt>
      <trkpt lat="43.02746" lon="0.56514">
        <ele>526.8</ele>
        <time>2019-12-05T09:14:38.581Z</time>
      </trkpt>
      <trkpt lat="43.02774" lon="0.56524">
        <ele>525.8</ele>
        <time>2019-12-05T09:15:36.193Z</time>
      </trkpt>
      <trkpt lat="43.02802" lon="0.56538">
        <ele>523.3</ele>
        <time>2019-12-05T09:16:34.405Z</time>
      </trkpt>
      <trkpt lat="43.02811" lon="0.56542">
        <ele>523.3</ele>
        <time>2019-12-05T09:16:54.657Z</time>
      </trkpt>
      <trkpt lat="43.02814" lon="0.56543">
        <ele>523.3</ele>
        <time>2019-12-05T09:16:59.293Z</time>
      </trkpt>
      <trkpt lat="43.02822" lon="0.56545">
        <ele>523.3</ele>
        <time>2019-12-05T09:17:15.484Z</time>
      </trkpt>
      <trkpt lat="43.02848" lon="0.56546">
        <ele>523.8</ele>
        <time>2019-12-05T09:17:43.180Z</time>
      </trkpt>
      <trkpt lat="43.02852" lon="0.56546">
        <ele>523.8</ele>
        <time>2019-12-05T09:17:48.149Z</time>
      </trkpt>
      <trkpt lat="43.0289" lon="0.56544">
        <ele>525.3</ele>
        <time>2019-12-05T09:18:28.333Z</time>
      </trkpt>
      <trkpt lat="43.02927" lon="0.56539">
        <ele>525.5</ele>
        <time>2019-12-05T09:19:07.588Z</time>
      </trkpt>
      <trkpt lat="43.0293" lon="0.56539">
        <ele>525.5</ele>
        <time>2019-12-05T09:19:10.240Z</time>
      </trkpt>
      <trkpt lat="43.02941" lon="0.56534">
        <ele>525.5</ele>
        <time>2019-12-05T09:19:23.505Z</time>
      </trkpt>
      <trkpt lat="43.02956" lon="0.56521">
        <ele>526.8</ele>
        <time>2019-12-05T09:19:42.655Z</time>
      </trkpt>
      <trkpt lat="43.02982" lon="0.56493">
        <ele>528</ele>
        <time>2019-12-05T09:20:20.397Z</time>
      </trkpt>
      <trkpt lat="43.02995" lon="0.56476">
        <ele>524.8</ele>
        <time>2019-12-05T09:20:40.111Z</time>
      </trkpt>
      <trkpt lat="43.03026" lon="0.56439">
        <ele>524.8</ele>
        <time>2019-12-05T09:21:25.688Z</time>
      </trkpt>
      <trkpt lat="43.03052" lon="0.56426">
        <ele>519.8</ele>
        <time>2019-12-05T09:21:56.541Z</time>
      </trkpt>
      <trkpt lat="43.03073" lon="0.56428">
        <ele>515</ele>
        <time>2019-12-05T09:22:19.765Z</time>
      </trkpt>
      <trkpt lat="43.03087" lon="0.56434">
        <ele>511.8</ele>
        <time>2019-12-05T09:22:36.132Z</time>
      </trkpt>
      <trkpt lat="43.03101" lon="0.56439">
        <ele>510</ele>
        <time>2019-12-05T09:22:52.155Z</time>
      </trkpt>
      <trkpt lat="43.03113" lon="0.56438">
        <ele>508.5</ele>
        <time>2019-12-05T09:23:06.331Z</time>
      </trkpt>
      <trkpt lat="43.03118" lon="0.56433">
        <ele>508</ele>
        <time>2019-12-05T09:23:13.370Z</time>
      </trkpt>
      <trkpt lat="43.03143" lon="0.564">
        <ele>507</ele>
        <time>2019-12-05T09:23:52.325Z</time>
      </trkpt>
      <trkpt lat="43.03166" lon="0.56375">
        <ele>505</ele>
        <time>2019-12-05T09:24:24.347Z</time>
      </trkpt>
      <trkpt lat="43.03175" lon="0.56369">
        <ele>509.2</ele>
        <time>2019-12-05T09:24:35.809Z</time>
      </trkpt>
      <trkpt lat="43.03181" lon="0.56364">
        <ele>509.2</ele>
        <time>2019-12-05T09:24:42.809Z</time>
      </trkpt>
      <trkpt lat="43.03186" lon="0.56358">
        <ele>508.9</ele>
        <time>2019-12-05T09:24:50.809Z</time>
      </trkpt>
      <trkpt lat="43.03189" lon="0.56352">
        <ele>508.4</ele>
        <time>2019-12-05T09:24:57.809Z</time>
      </trkpt>
      <trkpt lat="43.03192" lon="0.56346">
        <ele>507.8</ele>
        <time>2019-12-05T09:25:03.809Z</time>
      </trkpt>
      <trkpt lat="43.03192" lon="0.56345">
        <ele>507.8</ele>
        <time>2019-12-05T09:25:10.809Z</time>
      </trkpt>
      <trkpt lat="43.0319" lon="0.56341">
        <ele>507.5</ele>
        <time>2019-12-05T09:25:21.809Z</time>
      </trkpt>
      <trkpt lat="43.0319" lon="0.5634">
        <ele>507.4</ele>
        <time>2019-12-05T09:25:29.809Z</time>
      </trkpt>
      <trkpt lat="43.03187" lon="0.56334">
        <ele>507</ele>
        <time>2019-12-05T09:25:39.809Z</time>
      </trkpt>
      <trkpt lat="43.03184" lon="0.56328">
        <ele>506.7</ele>
        <time>2019-12-05T09:25:47.809Z</time>
      </trkpt>
      <trkpt lat="43.03177" lon="0.56321">
        <ele>506.4</ele>
        <time>2019-12-05T09:25:56.809Z</time>
      </trkpt>
      <trkpt lat="43.03172" lon="0.56314">
        <ele>506.2</ele>
        <time>2019-12-05T09:26:04.809Z</time>
      </trkpt>
      <trkpt lat="43.03167" lon="0.56304">
        <ele>506.2</ele>
        <time>2019-12-05T09:26:13.809Z</time>
      </trkpt>
      <trkpt lat="43.03162" lon="0.56303">
        <ele>514.5</ele>
        <time>2019-12-05T09:26:21.393Z</time>
      </trkpt>
      <trkpt lat="43.03159" lon="0.56301">
        <ele>515.5</ele>
        <time>2019-12-05T09:26:25.465Z</time>
      </trkpt>
      <trkpt lat="43.03159" lon="0.56296">
        <ele>516.5</ele>
        <time>2019-12-05T09:26:29.936Z</time>
      </trkpt>
      <trkpt lat="43.0316" lon="0.56292">
        <ele>517</ele>
        <time>2019-12-05T09:26:34.699Z</time>
      </trkpt>
      <trkpt lat="43.0318" lon="0.56274">
        <ele>516.8</ele>
        <time>2019-12-05T09:27:05.475Z</time>
      </trkpt>
      <trkpt lat="43.0322" lon="0.56226">
        <ele>515.5</ele>
        <time>2019-12-05T09:28:15.292Z</time>
      </trkpt>
      <trkpt lat="43.03244" lon="0.56176">
        <ele>517.3</ele>
        <time>2019-12-05T09:29:13.468Z</time>
      </trkpt>
      <trkpt lat="43.03263" lon="0.5616">
        <ele>513.3</ele>
        <time>2019-12-05T09:29:42.324Z</time>
      </trkpt>
      <trkpt lat="43.03275" lon="0.5615">
        <ele>513.3</ele>
        <time>2019-12-05T09:30:00.154Z</time>
      </trkpt>
      <trkpt lat="43.03294" lon="0.56112">
        <ele>513.3</ele>
        <time>2019-12-05T09:30:44.865Z</time>
      </trkpt>
      <trkpt lat="43.03301" lon="0.56105">
        <ele>512</ele>
        <time>2019-12-05T09:30:56.988Z</time>
      </trkpt>
      <trkpt lat="43.03308" lon="0.56101">
        <ele>510.5</ele>
        <time>2019-12-05T09:31:05.651Z</time>
      </trkpt>
      <trkpt lat="43.03311" lon="0.56098">
        <ele>509.8</ele>
        <time>2019-12-05T09:31:11.247Z</time>
      </trkpt>
      <trkpt lat="43.03313" lon="0.56092">
        <ele>509.8</ele>
        <time>2019-12-05T09:31:17.586Z</time>
      </trkpt>
      <trkpt lat="43.03315" lon="0.56086">
        <ele>509.8</ele>
        <time>2019-12-05T09:31:23.117Z</time>
      </trkpt>
      <trkpt lat="43.0333" lon="0.56032">
        <ele>507.8</ele>
        <time>2019-12-05T09:32:10.408Z</time>
      </trkpt>
      <trkpt lat="43.03335" lon="0.56018">
        <ele>503.5</ele>
        <time>2019-12-05T09:32:22.875Z</time>
      </trkpt>
      <trkpt lat="43.0335" lon="0.55978">
        <ele>503.5</ele>
        <time>2019-12-05T09:32:59.293Z</time>
      </trkpt>
      <trkpt lat="43.0336" lon="0.5596">
        <ele>501.3</ele>
        <time>2019-12-05T09:33:17.127Z</time>
      </trkpt>
      <trkpt lat="43.03365" lon="0.55946">
        <ele>500</ele>
        <time>2019-12-05T09:33:29.604Z</time>
      </trkpt>
      <trkpt lat="43.03369" lon="0.55926">
        <ele>499.5</ele>
        <time>2019-12-05T09:33:46.393Z</time>
      </trkpt>
      <trkpt lat="43.03374" lon="0.55913">
        <ele>498</ele>
        <time>2019-12-05T09:33:58.822Z</time>
      </trkpt>
      <trkpt lat="43.03375" lon="0.55907">
        <ele>497.8</ele>
        <time>2019-12-05T09:34:03.235Z</time>
      </trkpt>
      <trkpt lat="43.03375" lon="0.55904">
        <ele>498</ele>
        <time>2019-12-05T09:34:06.316Z</time>
      </trkpt>
      <trkpt lat="43.03378" lon="0.55899">
        <ele>490.5</ele>
        <time>2019-12-05T09:34:11.455Z</time>
      </trkpt>
      <trkpt lat="43.03375" lon="0.55904">
        <ele>498</ele>
        <time>2019-12-05T09:34:16.594Z</time>
      </trkpt>
      <trkpt lat="43.03374" lon="0.55899">
        <ele>498.3</ele>
        <time>2019-12-05T09:34:20.518Z</time>
      </trkpt>
      <trkpt lat="43.03355" lon="0.55884">
        <ele>504</ele>
        <time>2019-12-05T09:34:43.888Z</time>
      </trkpt>
      <trkpt lat="43.03352" lon="0.55875">
        <ele>504.8</ele>
        <time>2019-12-05T09:34:51.644Z</time>
      </trkpt>
      <trkpt lat="43.03349" lon="0.55828">
        <ele>505.5</ele>
        <time>2019-12-05T09:35:27.698Z</time>
      </trkpt>
      <trkpt lat="43.03345" lon="0.55802">
        <ele>507.5</ele>
        <time>2019-12-05T09:35:48.221Z</time>
      </trkpt>
      <trkpt lat="43.03347" lon="0.55736">
        <ele>508.8</ele>
        <time>2019-12-05T09:36:39.631Z</time>
      </trkpt>
      <trkpt lat="43.03345" lon="0.55694">
        <ele>510.8</ele>
        <time>2019-12-05T09:37:11.393Z</time>
      </trkpt>
      <trkpt lat="43.03342" lon="0.55685">
        <ele>512.3</ele>
        <time>2019-12-05T09:37:19.224Z</time>
      </trkpt>
      <trkpt lat="43.0334" lon="0.55676">
        <ele>513.5</ele>
        <time>2019-12-05T09:37:26.682Z</time>
      </trkpt>
      <trkpt lat="43.03332" lon="0.55633">
        <ele>517.3</ele>
        <time>2019-12-05T09:38:00.840Z</time>
      </trkpt>
      <trkpt lat="43.03335" lon="0.55617">
        <ele>516.5</ele>
        <time>2019-12-05T09:38:13.129Z</time>
      </trkpt>
      <trkpt lat="43.0333" lon="0.55587">
        <ele>519.5</ele>
        <time>2019-12-05T09:38:37.116Z</time>
      </trkpt>
      <trkpt lat="43.03334" lon="0.55564">
        <ele>517.3</ele>
        <time>2019-12-05T09:38:54.958Z</time>
      </trkpt>
      <trkpt lat="43.03331" lon="0.55536">
        <ele>517.8</ele>
        <time>2019-12-05T09:39:17.128Z</time>
      </trkpt>
      <trkpt lat="43.03328" lon="0.55515">
        <ele>518.5</ele>
        <time>2019-12-05T09:39:33.169Z</time>
      </trkpt>
      <trkpt lat="43.03308" lon="0.55475">
        <ele>525.5</ele>
        <time>2019-12-05T09:40:10.953Z</time>
      </trkpt>
      <trkpt lat="43.03285" lon="0.55404">
        <ele>527.8</ele>
        <time>2019-12-05T09:41:10.554Z</time>
      </trkpt>
      <trkpt lat="43.03271" lon="0.55338">
        <ele>523.5</ele>
        <time>2019-12-05T09:42:04.009Z</time>
      </trkpt>
      <trkpt lat="43.03267" lon="0.55315">
        <ele>522.3</ele>
        <time>2019-12-05T09:42:22.217Z</time>
      </trkpt>
      <trkpt lat="43.03265" lon="0.55299">
        <ele>521.5</ele>
        <time>2019-12-05T09:42:34.468Z</time>
      </trkpt>
      <trkpt lat="43.03249" lon="0.55192">
        <ele>520.5</ele>
        <time>2019-12-05T09:43:58.905Z</time>
      </trkpt>
      <trkpt lat="43.03245" lon="0.55166">
        <ele>520.8</ele>
        <time>2019-12-05T09:44:19.155Z</time>
      </trkpt>
      <trkpt lat="43.0325" lon="0.55156">
        <ele>519.2</ele>
        <time>2019-12-05T09:44:28.712Z</time>
      </trkpt>
      <trkpt lat="43.03257" lon="0.55156">
        <ele>519.4</ele>
        <time>2019-12-05T09:44:34.712Z</time>
      </trkpt>
      <trkpt lat="43.03269" lon="0.5516">
        <ele>519.4</ele>
        <time>2019-12-05T09:44:45.712Z</time>
      </trkpt>
      <trkpt lat="43.03281" lon="0.55163">
        <ele>518.8</ele>
        <time>2019-12-05T09:44:56.712Z</time>
      </trkpt>
      <trkpt lat="43.03285" lon="0.55163">
        <ele>518.5</ele>
        <time>2019-12-05T09:44:59.712Z</time>
      </trkpt>
      <trkpt lat="43.03293" lon="0.55164">
        <ele>517.8</ele>
        <time>2019-12-05T09:45:05.712Z</time>
      </trkpt>
      <trkpt lat="43.03307" lon="0.55165">
        <ele>516.5</ele>
        <time>2019-12-05T09:45:17.712Z</time>
      </trkpt>
      <trkpt lat="43.03312" lon="0.55164">
        <ele>516</ele>
        <time>2019-12-05T09:45:20.712Z</time>
      </trkpt>
      <trkpt lat="43.03324" lon="0.55164">
        <ele>515.2</ele>
        <time>2019-12-05T09:45:29.712Z</time>
      </trkpt>
      <trkpt lat="43.03339" lon="0.55163">
        <ele>514.5</ele>
        <time>2019-12-05T09:45:40.712Z</time>
      </trkpt>
      <trkpt lat="43.03352" lon="0.55165">
        <ele>513.7</ele>
        <time>2019-12-05T09:45:50.712Z</time>
      </trkpt>
      <trkpt lat="43.03363" lon="0.55164">
        <ele>512.8</ele>
        <time>2019-12-05T09:45:58.712Z</time>
      </trkpt>
      <trkpt lat="43.03375" lon="0.55157">
        <ele>511.6</ele>
        <time>2019-12-05T09:46:08.712Z</time>
      </trkpt>
      <trkpt lat="43.03379" lon="0.55152">
        <ele>511.2</ele>
        <time>2019-12-05T09:46:14.712Z</time>
      </trkpt>
      <trkpt lat="43.03384" lon="0.55139">
        <ele>510.8</ele>
        <time>2019-12-05T09:46:23.712Z</time>
      </trkpt>
      <trkpt lat="43.0339" lon="0.55123">
        <ele>510.6</ele>
        <time>2019-12-05T09:46:34.712Z</time>
      </trkpt>
      <trkpt lat="43.03394" lon="0.55105">
        <ele>510.4</ele>
        <time>2019-12-05T09:46:45.712Z</time>
      </trkpt>
      <trkpt lat="43.03399" lon="0.55085">
        <ele>510.6</ele>
        <time>2019-12-05T09:46:59.712Z</time>
      </trkpt>
      <trkpt lat="43.03403" lon="0.55068">
        <ele>510.5</ele>
        <time>2019-12-05T09:47:10.712Z</time>
      </trkpt>
      <trkpt lat="43.03407" lon="0.5505">
        <ele>510.1</ele>
        <time>2019-12-05T09:47:22.712Z</time>
      </trkpt>
      <trkpt lat="43.03412" lon="0.55034">
        <ele>509.8</ele>
        <time>2019-12-05T09:47:32.712Z</time>
      </trkpt>
      <trkpt lat="43.03417" lon="0.55017">
        <ele>509.6</ele>
        <time>2019-12-05T09:47:44.712Z</time>
      </trkpt>
      <trkpt lat="43.03422" lon="0.55">
        <ele>509.7</ele>
        <time>2019-12-05T09:47:55.712Z</time>
      </trkpt>
      <trkpt lat="43.03427" lon="0.54982">
        <ele>509.9</ele>
        <time>2019-12-05T09:48:07.712Z</time>
      </trkpt>
      <trkpt lat="43.03429" lon="0.54962">
        <ele>510.2</ele>
        <time>2019-12-05T09:48:20.712Z</time>
      </trkpt>
      <trkpt lat="43.0343" lon="0.5494">
        <ele>510.7</ele>
        <time>2019-12-05T09:48:33.712Z</time>
      </trkpt>
      <trkpt lat="43.03427" lon="0.54923">
        <ele>510.8</ele>
        <time>2019-12-05T09:48:43.712Z</time>
      </trkpt>
      <trkpt lat="43.03428" lon="0.54903">
        <ele>510.9</ele>
        <time>2019-12-05T09:48:55.712Z</time>
      </trkpt>
      <trkpt lat="43.0343" lon="0.54886">
        <ele>510.9</ele>
        <time>2019-12-05T09:49:05.712Z</time>
      </trkpt>
      <trkpt lat="43.03429" lon="0.5487">
        <ele>510.5</ele>
        <time>2019-12-05T09:49:15.712Z</time>
      </trkpt>
      <trkpt lat="43.03429" lon="0.54849">
        <ele>509.5</ele>
        <time>2019-12-05T09:49:27.712Z</time>
      </trkpt>
      <trkpt lat="43.03428" lon="0.54838">
        <ele>508.8</ele>
        <time>2019-12-05T09:49:38.712Z</time>
      </trkpt>
      <trkpt lat="43.03428" lon="0.54835">
        <ele>508.6</ele>
        <time>2019-12-05T09:49:40.712Z</time>
      </trkpt>
      <trkpt lat="43.03431" lon="0.54817">
        <ele>507.2</ele>
        <time>2019-12-05T09:49:52.712Z</time>
      </trkpt>
      <trkpt lat="43.03435" lon="0.54808">
        <ele>506.8</ele>
        <time>2019-12-05T09:49:59.712Z</time>
      </trkpt>
      <trkpt lat="43.03436" lon="0.54803">
        <ele>506.5</ele>
        <time>2019-12-05T09:50:03.712Z</time>
      </trkpt>
      <trkpt lat="43.03439" lon="0.548">
        <ele>506.3</ele>
        <time>2019-12-05T09:50:06.712Z</time>
      </trkpt>
      <trkpt lat="43.03446" lon="0.54797">
        <ele>505.7</ele>
        <time>2019-12-05T09:50:16.712Z</time>
      </trkpt>
      <trkpt lat="43.03453" lon="0.54794">
        <ele>505.2</ele>
        <time>2019-12-05T09:50:25.712Z</time>
      </trkpt>
      <trkpt lat="43.03452" lon="0.54786">
        <ele>504.8</ele>
        <time>2019-12-05T09:50:32.712Z</time>
      </trkpt>
      <trkpt lat="43.03451" lon="0.54782">
        <ele>504.6</ele>
        <time>2019-12-05T09:50:37.712Z</time>
      </trkpt>
      <trkpt lat="43.03444" lon="0.54776">
        <ele>504.1</ele>
        <time>2019-12-05T09:50:47.712Z</time>
      </trkpt>
      <trkpt lat="43.03442" lon="0.5477">
        <ele>503.9</ele>
        <time>2019-12-05T09:50:55.712Z</time>
      </trkpt>
      <trkpt lat="43.03446" lon="0.54769">
        <ele>503.8</ele>
        <time>2019-12-05T09:51:04.712Z</time>
      </trkpt>
      <trkpt lat="43.03454" lon="0.54763">
        <ele>503.4</ele>
        <time>2019-12-05T09:51:13.712Z</time>
      </trkpt>
      <trkpt lat="43.03458" lon="0.54758">
        <ele>503.1</ele>
        <time>2019-12-05T09:51:21.712Z</time>
      </trkpt>
      <trkpt lat="43.03459" lon="0.54754">
        <ele>502.9</ele>
        <time>2019-12-05T09:51:26.712Z</time>
      </trkpt>
      <trkpt lat="43.03459" lon="0.54747">
        <ele>502.3</ele>
        <time>2019-12-05T09:51:31.712Z</time>
      </trkpt>
      <trkpt lat="43.03458" lon="0.54729">
        <ele>503</ele>
        <time>2019-12-05T09:51:42.712Z</time>
      </trkpt>
      <trkpt lat="43.03455" lon="0.5472">
        <ele>503</ele>
        <time>2019-12-05T09:51:50.712Z</time>
      </trkpt>
      <trkpt lat="43.03453" lon="0.54717">
        <ele>502.8</ele>
        <time>2019-12-05T09:52:00.712Z</time>
      </trkpt>
      <trkpt lat="43.03455" lon="0.5471">
        <ele>502.2</ele>
        <time>2019-12-05T09:52:10.712Z</time>
      </trkpt>
      <trkpt lat="43.03454" lon="0.54704">
        <ele>501.8</ele>
        <time>2019-12-05T09:52:18.712Z</time>
      </trkpt>
      <trkpt lat="43.03452" lon="0.54704">
        <ele>501.6</ele>
        <time>2019-12-05T09:52:21.712Z</time>
      </trkpt>
      <trkpt lat="43.03438" lon="0.54701">
        <ele>500.4</ele>
        <time>2019-12-05T09:52:33.712Z</time>
      </trkpt>
      <trkpt lat="43.03428" lon="0.547">
        <ele>499.7</ele>
        <time>2019-12-05T09:52:42.712Z</time>
      </trkpt>
      <trkpt lat="43.03423" lon="0.54699">
        <ele>499.5</ele>
        <time>2019-12-05T09:52:48.712Z</time>
      </trkpt>
      <trkpt lat="43.03422" lon="0.54699">
        <ele>499.4</ele>
        <time>2019-12-05T09:52:49.712Z</time>
      </trkpt>
      <trkpt lat="43.03418" lon="0.547">
        <ele>499.3</ele>
        <time>2019-12-05T09:52:53.712Z</time>
      </trkpt>
      <trkpt lat="43.03404" lon="0.54699">
        <ele>499</ele>
        <time>2019-12-05T09:53:04.712Z</time>
      </trkpt>
      <trkpt lat="43.03395" lon="0.54698">
        <ele>498.9</ele>
        <time>2019-12-05T09:53:13.712Z</time>
      </trkpt>
      <trkpt lat="43.03386" lon="0.54695">
        <ele>498.8</ele>
        <time>2019-12-05T09:53:22.712Z</time>
      </trkpt>
      <trkpt lat="43.03383" lon="0.54694">
        <ele>498.7</ele>
        <time>2019-12-05T09:53:30.712Z</time>
      </trkpt>
      <trkpt lat="43.03381" lon="0.54694">
        <ele>498.7</ele>
        <time>2019-12-05T09:53:32.712Z</time>
      </trkpt>
      <trkpt lat="43.03374" lon="0.54694">
        <ele>498.5</ele>
        <time>2019-12-05T09:53:42.158Z</time>
      </trkpt>
      <trkpt lat="43.03374" lon="0.54691">
        <ele>498.5</ele>
        <time>2019-12-05T09:53:44.463Z</time>
      </trkpt>
      <trkpt lat="43.03369" lon="0.5467">
        <ele>497.8</ele>
        <time>2019-12-05T09:54:04.757Z</time>
      </trkpt>
      <trkpt lat="43.03368" lon="0.54668">
        <ele>499.5</ele>
        <time>2019-12-05T09:54:06.764Z</time>
      </trkpt>
      <trkpt lat="43.03361" lon="0.54655">
        <ele>499.5</ele>
        <time>2019-12-05T09:54:21.041Z</time>
      </trkpt>
      <trkpt lat="43.0336" lon="0.54644">
        <ele>501.5</ele>
        <time>2019-12-05T09:54:31.689Z</time>
      </trkpt>
      <trkpt lat="43.0336" lon="0.5464">
        <ele>501.5</ele>
        <time>2019-12-05T09:54:35.757Z</time>
      </trkpt>
      <trkpt lat="43.03363" lon="0.54614">
        <ele>505</ele>
        <time>2019-12-05T09:55:01.967Z</time>
      </trkpt>
      <trkpt lat="43.03368" lon="0.54603">
        <ele>506</ele>
        <time>2019-12-05T09:55:14.485Z</time>
      </trkpt>
      <trkpt lat="43.03371" lon="0.54579">
        <ele>509.8</ele>
        <time>2019-12-05T09:55:38.864Z</time>
      </trkpt>
      <trkpt lat="43.03373" lon="0.54576">
        <ele>510.5</ele>
        <time>2019-12-05T09:55:43.320Z</time>
      </trkpt>
      <trkpt lat="43.03375" lon="0.54575">
        <ele>510.5</ele>
        <time>2019-12-05T09:55:45.967Z</time>
      </trkpt>
      <trkpt lat="43.03378" lon="0.54575">
        <ele>510.5</ele>
        <time>2019-12-05T09:55:49.440Z</time>
      </trkpt>
      <trkpt lat="43.03386" lon="0.5457">
        <ele>511.3</ele>
        <time>2019-12-05T09:56:01.202Z</time>
      </trkpt>
      <trkpt lat="43.03409" lon="0.54544">
        <ele>516.5</ele>
        <time>2019-12-05T09:56:43.007Z</time>
      </trkpt>
      <trkpt lat="43.03409" lon="0.54544">
        <ele>516.5</ele>
        <time>2019-12-05T09:56:43.176Z</time>
      </trkpt>
      <trkpt lat="43.03417" lon="0.54535">
        <ele>518</ele>
        <time>2019-12-05T09:56:58.004Z</time>
      </trkpt>
      <trkpt lat="43.0342" lon="0.5453">
        <ele>519.5</ele>
        <time>2019-12-05T09:57:05.271Z</time>
      </trkpt>
      <trkpt lat="43.03419" lon="0.54525">
        <ele>520.5</ele>
        <time>2019-12-05T09:57:10.245Z</time>
      </trkpt>
      <trkpt lat="43.03417" lon="0.54522">
        <ele>521.3</ele>
        <time>2019-12-05T09:57:15.756Z</time>
      </trkpt>
      <trkpt lat="43.03413" lon="0.54523">
        <ele>521.5</ele>
        <time>2019-12-05T09:57:21.402Z</time>
      </trkpt>
      <trkpt lat="43.03412" lon="0.54524">
        <ele>520.5</ele>
        <time>2019-12-05T09:57:23.776Z</time>
      </trkpt>
      <trkpt lat="43.0341" lon="0.54527">
        <ele>520.5</ele>
        <time>2019-12-05T09:57:28.246Z</time>
      </trkpt>
      <trkpt lat="43.03407" lon="0.54529">
        <ele>520.3</ele>
        <time>2019-12-05T09:57:32.460Z</time>
      </trkpt>
      <trkpt lat="43.03393" lon="0.54533">
        <ele>520.5</ele>
        <time>2019-12-05T09:57:53.883Z</time>
      </trkpt>
      <trkpt lat="43.03375" lon="0.54537">
        <ele>521</ele>
        <time>2019-12-05T09:58:20.306Z</time>
      </trkpt>
      <trkpt lat="43.03359" lon="0.54537">
        <ele>522.3</ele>
        <time>2019-12-05T09:58:43.827Z</time>
      </trkpt>
      <trkpt lat="43.03345" lon="0.5453">
        <ele>525.3</ele>
        <time>2019-12-05T09:59:07.095Z</time>
      </trkpt>
      <trkpt lat="43.03337" lon="0.5453">
        <ele>526.3</ele>
        <time>2019-12-05T09:59:17.750Z</time>
      </trkpt>
      <trkpt lat="43.03334" lon="0.5453">
        <ele>526.3</ele>
        <time>2019-12-05T09:59:22.335Z</time>
      </trkpt>
      <trkpt lat="43.03329" lon="0.54527">
        <ele>526.3</ele>
        <time>2019-12-05T09:59:32.523Z</time>
      </trkpt>
      <trkpt lat="43.03329" lon="0.54521">
        <ele>528</ele>
        <time>2019-12-05T09:59:42.097Z</time>
      </trkpt>
      <trkpt lat="43.03331" lon="0.54516">
        <ele>530</ele>
        <time>2019-12-05T09:59:50.813Z</time>
      </trkpt>
      <trkpt lat="43.03336" lon="0.54516">
        <ele>529.8</ele>
        <time>2019-12-05T09:59:59.644Z</time>
      </trkpt>
      <trkpt lat="43.03337" lon="0.54517">
        <ele>529.8</ele>
        <time>2019-12-05T10:00:02.054Z</time>
      </trkpt>
      <trkpt lat="43.03344" lon="0.5452">
        <ele>528</ele>
        <time>2019-12-05T10:00:17.068Z</time>
      </trkpt>
      <trkpt lat="43.03351" lon="0.54522">
        <ele>527.3</ele>
        <time>2019-12-05T10:00:32.105Z</time>
      </trkpt>
      <trkpt lat="43.03358" lon="0.5452">
        <ele>527.3</ele>
        <time>2019-12-05T10:00:49.556Z</time>
      </trkpt>
      <trkpt lat="43.03363" lon="0.54513">
        <ele>528.5</ele>
        <time>2019-12-05T10:01:08.624Z</time>
      </trkpt>
      <trkpt lat="43.03365" lon="0.5451">
        <ele>531.8</ele>
        <time>2019-12-05T10:01:16.481Z</time>
      </trkpt>
      <trkpt lat="43.03372" lon="0.54495">
        <ele>531.8</ele>
        <time>2019-12-05T10:01:51.805Z</time>
      </trkpt>
      <trkpt lat="43.03375" lon="0.54473">
        <ele>534.5</ele>
        <time>2019-12-05T10:02:35.148Z</time>
      </trkpt>
      <trkpt lat="43.03376" lon="0.54448">
        <ele>537.8</ele>
        <time>2019-12-05T10:03:24.313Z</time>
      </trkpt>
      <trkpt lat="43.03373" lon="0.54438">
        <ele>541.5</ele>
        <time>2019-12-05T10:03:43.942Z</time>
      </trkpt>
      <trkpt lat="43.03374" lon="0.54429">
        <ele>556.8</ele>
        <time>2019-12-05T10:04:02.082Z</time>
      </trkpt>
      <trkpt lat="43.03371" lon="0.54422">
        <ele>557.4</ele>
        <time>2019-12-05T10:04:10.082Z</time>
      </trkpt>
      <trkpt lat="43.03366" lon="0.54416">
        <ele>557.8</ele>
        <time>2019-12-05T10:04:18.082Z</time>
      </trkpt>
      <trkpt lat="43.0336" lon="0.54409">
        <ele>558.1</ele>
        <time>2019-12-05T10:04:29.082Z</time>
      </trkpt>
      <trkpt lat="43.03356" lon="0.54406">
        <ele>558.3</ele>
        <time>2019-12-05T10:04:38.082Z</time>
      </trkpt>
      <trkpt lat="43.03348" lon="0.54403">
        <ele>558.4</ele>
        <time>2019-12-05T10:04:47.082Z</time>
      </trkpt>
      <trkpt lat="43.03341" lon="0.54402">
        <ele>558.4</ele>
        <time>2019-12-05T10:04:56.082Z</time>
      </trkpt>
      <trkpt lat="43.03336" lon="0.54397">
        <ele>558.4</ele>
        <time>2019-12-05T10:05:04.082Z</time>
      </trkpt>
      <trkpt lat="43.03335" lon="0.54397">
        <ele>558.4</ele>
        <time>2019-12-05T10:05:06.082Z</time>
      </trkpt>
      <trkpt lat="43.0333" lon="0.54386">
        <ele>558.4</ele>
        <time>2019-12-05T10:05:16.082Z</time>
      </trkpt>
      <trkpt lat="43.03327" lon="0.54377">
        <ele>558.5</ele>
        <time>2019-12-05T10:05:24.082Z</time>
      </trkpt>
      <trkpt lat="43.03324" lon="0.54363">
        <ele>558.8</ele>
        <time>2019-12-05T10:05:34.082Z</time>
      </trkpt>
      <trkpt lat="43.03323" lon="0.54351">
        <ele>559.1</ele>
        <time>2019-12-05T10:05:43.082Z</time>
      </trkpt>
      <trkpt lat="43.03323" lon="0.54335">
        <ele>559.7</ele>
        <time>2019-12-05T10:05:52.082Z</time>
      </trkpt>
      <trkpt lat="43.03322" lon="0.54321">
        <ele>560.3</ele>
        <time>2019-12-05T10:06:02.082Z</time>
      </trkpt>
      <trkpt lat="43.0332" lon="0.54307">
        <ele>561.2</ele>
        <time>2019-12-05T10:06:10.082Z</time>
      </trkpt>
      <trkpt lat="43.03316" lon="0.54297">
        <ele>554.8</ele>
        <time>2019-12-05T10:06:21.403Z</time>
      </trkpt>
      <trkpt lat="43.03312" lon="0.54285">
        <ele>555.8</ele>
        <time>2019-12-05T10:06:35.529Z</time>
      </trkpt>
      <trkpt lat="43.03308" lon="0.54281">
        <ele>555.8</ele>
        <time>2019-12-05T10:06:43.166Z</time>
      </trkpt>
      <trkpt lat="43.03307" lon="0.54271">
        <ele>557.3</ele>
        <time>2019-12-05T10:06:53.540Z</time>
      </trkpt>
      <trkpt lat="43.03298" lon="0.54252">
        <ele>558.8</ele>
        <time>2019-12-05T10:07:17.851Z</time>
      </trkpt>
      <trkpt lat="43.03297" lon="0.5425">
        <ele>558.8</ele>
        <time>2019-12-05T10:07:20.092Z</time>
      </trkpt>
      <trkpt lat="43.03285" lon="0.54227">
        <ele>566.8</ele>
        <time>2019-12-05T10:07:50.421Z</time>
      </trkpt>
      <trkpt lat="43.03269" lon="0.54195">
        <ele>566.8</ele>
        <time>2019-12-05T10:08:31.061Z</time>
      </trkpt>
      <trkpt lat="43.0326" lon="0.54175">
        <ele>571</ele>
        <time>2019-12-05T10:09:01.622Z</time>
      </trkpt>
      <trkpt lat="43.03258" lon="0.5417">
        <ele>574.5</ele>
        <time>2019-12-05T10:09:08.156Z</time>
      </trkpt>
      <trkpt lat="43.03251" lon="0.54156">
        <ele>574.5</ele>
        <time>2019-12-05T10:09:30.102Z</time>
      </trkpt>
      <trkpt lat="43.03239" lon="0.54142">
        <ele>577.3</ele>
        <time>2019-12-05T10:09:57.740Z</time>
      </trkpt>
      <trkpt lat="43.03229" lon="0.54132">
        <ele>579.3</ele>
        <time>2019-12-05T10:10:17.740Z</time>
      </trkpt>
      <trkpt lat="43.03209" lon="0.54104">
        <ele>587.8</ele>
        <time>2019-12-05T10:11:06.933Z</time>
      </trkpt>
      <trkpt lat="43.03212" lon="0.54106">
        <ele>580.9</ele>
        <time>2019-12-05T10:11:12.616Z</time>
      </trkpt>
      <trkpt lat="43.03222" lon="0.54107">
        <ele>582</ele>
        <time>2019-12-05T10:11:32.616Z</time>
      </trkpt>
      <trkpt lat="43.03217" lon="0.54104">
        <ele>582.6</ele>
        <time>2019-12-05T10:11:43.616Z</time>
      </trkpt>
      <trkpt lat="43.03216" lon="0.54096">
        <ele>583.4</ele>
        <time>2019-12-05T10:11:53.616Z</time>
      </trkpt>
      <trkpt lat="43.03219" lon="0.5409">
        <ele>584.1</ele>
        <time>2019-12-05T10:12:04.616Z</time>
      </trkpt>
      <trkpt lat="43.03225" lon="0.54088">
        <ele>584.9</ele>
        <time>2019-12-05T10:12:15.616Z</time>
      </trkpt>
      <trkpt lat="43.03233" lon="0.54084">
        <ele>586.3</ele>
        <time>2019-12-05T10:12:27.616Z</time>
      </trkpt>
      <trkpt lat="43.03243" lon="0.54083">
        <ele>588</ele>
        <time>2019-12-05T10:12:41.616Z</time>
      </trkpt>
      <trkpt lat="43.03254" lon="0.54082">
        <ele>589.5</ele>
        <time>2019-12-05T10:12:55.616Z</time>
      </trkpt>
      <trkpt lat="43.03265" lon="0.54082">
        <ele>591</ele>
        <time>2019-12-05T10:13:07.616Z</time>
      </trkpt>
      <trkpt lat="43.03269" lon="0.54078">
        <ele>591.8</ele>
        <time>2019-12-05T10:13:19.616Z</time>
      </trkpt>
      <trkpt lat="43.03279" lon="0.5408">
        <ele>593</ele>
        <time>2019-12-05T10:13:32.616Z</time>
      </trkpt>
      <trkpt lat="43.03288" lon="0.54077">
        <ele>593.8</ele>
        <time>2019-12-05T10:13:39.116Z</time>
      </trkpt>
      <trkpt lat="43.03291" lon="0.54076">
        <ele>594.5</ele>
        <time>2019-12-05T10:13:45.616Z</time>
      </trkpt>
      <trkpt lat="43.03295" lon="0.54074">
        <ele>595.1</ele>
        <time>2019-12-05T10:13:56.616Z</time>
      </trkpt>
      <trkpt lat="43.03295" lon="0.54075">
        <ele>595.2</ele>
        <time>2019-12-05T10:14:11.616Z</time>
      </trkpt>
      <trkpt lat="43.03298" lon="0.54075">
        <ele>595.7</ele>
        <time>2019-12-05T10:14:24.616Z</time>
      </trkpt>
      <trkpt lat="43.033" lon="0.54073">
        <ele>596</ele>
        <time>2019-12-05T10:14:34.616Z</time>
      </trkpt>
      <trkpt lat="43.03301" lon="0.54072">
        <ele>596.1</ele>
        <time>2019-12-05T10:14:47.616Z</time>
      </trkpt>
      <trkpt lat="43.03301" lon="0.54075">
        <ele>596.4</ele>
        <time>2019-12-05T10:14:59.616Z</time>
      </trkpt>
      <trkpt lat="43.03299" lon="0.5408">
        <ele>596.9</ele>
        <time>2019-12-05T10:15:07.616Z</time>
      </trkpt>
      <trkpt lat="43.03301" lon="0.54083">
        <ele>597.2</ele>
        <time>2019-12-05T10:15:18.616Z</time>
      </trkpt>
      <trkpt lat="43.03305" lon="0.5408">
        <ele>597.7</ele>
        <time>2019-12-05T10:15:25.616Z</time>
      </trkpt>
      <trkpt lat="43.0331" lon="0.54076">
        <ele>598.4</ele>
        <time>2019-12-05T10:15:34.616Z</time>
      </trkpt>
      <trkpt lat="43.03311" lon="0.54074">
        <ele>598.7</ele>
        <time>2019-12-05T10:15:42.616Z</time>
      </trkpt>
      <trkpt lat="43.03312" lon="0.54074">
        <ele>598.7</ele>
        <time>2019-12-05T10:15:52.616Z</time>
      </trkpt>
      <trkpt lat="43.03313" lon="0.54072">
        <ele>599</ele>
        <time>2019-12-05T10:16:08.616Z</time>
      </trkpt>
      <trkpt lat="43.03312" lon="0.54074">
        <ele>599.3</ele>
        <time>2019-12-05T10:16:23.616Z</time>
      </trkpt>
      <trkpt lat="43.03311" lon="0.54074">
        <ele>599.5</ele>
        <time>2019-12-05T10:16:43.616Z</time>
      </trkpt>
      <trkpt lat="43.0331" lon="0.54079">
        <ele>600</ele>
        <time>2019-12-05T10:17:05.616Z</time>
      </trkpt>
      <trkpt lat="43.03313" lon="0.54081">
        <ele>600.4</ele>
        <time>2019-12-05T10:17:22.616Z</time>
      </trkpt>
      <trkpt lat="43.03311" lon="0.54079">
        <ele>600.6</ele>
        <time>2019-12-05T10:17:33.616Z</time>
      </trkpt>
      <trkpt lat="43.03311" lon="0.54077">
        <ele>600.7</ele>
        <time>2019-12-05T10:17:46.616Z</time>
      </trkpt>
      <trkpt lat="43.03311" lon="0.54075">
        <ele>600.8</ele>
        <time>2019-12-05T10:18:04.616Z</time>
      </trkpt>
      <trkpt lat="43.03311" lon="0.54071">
        <ele>601.1</ele>
        <time>2019-12-05T10:18:20.616Z</time>
      </trkpt>
      <trkpt lat="43.03312" lon="0.54071">
        <ele>601.2</ele>
        <time>2019-12-05T10:18:30.616Z</time>
      </trkpt>
      <trkpt lat="43.03313" lon="0.54073">
        <ele>601.4</ele>
        <time>2019-12-05T10:18:38.616Z</time>
      </trkpt>
      <trkpt lat="43.03314" lon="0.54075">
        <ele>601.5</ele>
        <time>2019-12-05T10:18:47.616Z</time>
      </trkpt>
      <trkpt lat="43.03312" lon="0.54077">
        <ele>601.8</ele>
        <time>2019-12-05T10:19:09.616Z</time>
      </trkpt>
      <trkpt lat="43.03316" lon="0.54079">
        <ele>602.1</ele>
        <time>2019-12-05T10:19:35.616Z</time>
      </trkpt>
      <trkpt lat="43.03316" lon="0.54077">
        <ele>602.2</ele>
        <time>2019-12-05T10:19:58.616Z</time>
      </trkpt>
      <trkpt lat="43.03316" lon="0.54076">
        <ele>602.3</ele>
        <time>2019-12-05T10:20:19.616Z</time>
      </trkpt>
      <trkpt lat="43.03313" lon="0.54076">
        <ele>602.5</ele>
        <time>2019-12-05T10:20:31.616Z</time>
      </trkpt>
      <trkpt lat="43.03312" lon="0.54075">
        <ele>602.7</ele>
        <time>2019-12-05T10:20:41.616Z</time>
      </trkpt>
      <trkpt lat="43.03311" lon="0.54073">
        <ele>602.8</ele>
        <time>2019-12-05T10:20:47.616Z</time>
      </trkpt>
      <trkpt lat="43.03311" lon="0.54074">
        <ele>602.8</ele>
        <time>2019-12-05T10:21:09.616Z</time>
      </trkpt>
      <trkpt lat="43.03314" lon="0.54076">
        <ele>603.1</ele>
        <time>2019-12-05T10:21:30.616Z</time>
      </trkpt>
      <trkpt lat="43.03317" lon="0.5408">
        <ele>603.5</ele>
        <time>2019-12-05T10:21:53.616Z</time>
      </trkpt>
      <trkpt lat="43.03313" lon="0.54079">
        <ele>603.9</ele>
        <time>2019-12-05T10:22:13.616Z</time>
      </trkpt>
      <trkpt lat="43.03309" lon="0.54089">
        <ele>594.5</ele>
        <time>2019-12-05T10:22:46.982Z</time>
      </trkpt>
      <trkpt lat="43.03313" lon="0.54088">
        <ele>595</ele>
        <time>2019-12-05T10:23:02.462Z</time>
      </trkpt>
      <trkpt lat="43.03308" lon="0.54089">
        <ele>589.3</ele>
        <time>2019-12-05T10:23:22.228Z</time>
      </trkpt>
      <trkpt lat="43.03308" lon="0.54089">
        <ele>589.3</ele>
        <time>2019-12-05T10:23:22.541Z</time>
      </trkpt>
      <trkpt lat="43.03289" lon="0.5409">
        <ele>589.3</ele>
        <time>2019-12-05T10:23:56.647Z</time>
      </trkpt>
      <trkpt lat="43.03225" lon="0.54095">
        <ele>589.3</ele>
        <time>2019-12-05T10:25:47.292Z</time>
      </trkpt>
      <trkpt lat="43.03223" lon="0.54096">
        <ele>587.8</ele>
        <time>2019-12-05T10:25:50.325Z</time>
      </trkpt>
      <trkpt lat="43.03223" lon="0.54104">
        <ele>593.5</ele>
        <time>2019-12-05T10:25:58.933Z</time>
      </trkpt>
      <trkpt lat="43.03226" lon="0.54112">
        <ele>592.4</ele>
        <time>2019-12-05T10:26:08.933Z</time>
      </trkpt>
      <trkpt lat="43.03232" lon="0.54121">
        <ele>591</ele>
        <time>2019-12-05T10:26:18.933Z</time>
      </trkpt>
      <trkpt lat="43.03241" lon="0.54132">
        <ele>588.7</ele>
        <time>2019-12-05T10:26:29.933Z</time>
      </trkpt>
      <trkpt lat="43.03248" lon="0.54139">
        <ele>586.9</ele>
        <time>2019-12-05T10:26:38.933Z</time>
      </trkpt>
      <trkpt lat="43.03256" lon="0.5415">
        <ele>584.5</ele>
        <time>2019-12-05T10:26:47.933Z</time>
      </trkpt>
      <trkpt lat="43.0326" lon="0.5416">
        <ele>583.1</ele>
        <time>2019-12-05T10:26:54.933Z</time>
      </trkpt>
      <trkpt lat="43.03266" lon="0.54168">
        <ele>581.7</ele>
        <time>2019-12-05T10:27:02.933Z</time>
      </trkpt>
      <trkpt lat="43.03273" lon="0.54178">
        <ele>580.2</ele>
        <time>2019-12-05T10:27:12.933Z</time>
      </trkpt>
      <trkpt lat="43.03278" lon="0.54185">
        <ele>579.4</ele>
        <time>2019-12-05T10:27:22.933Z</time>
      </trkpt>
      <trkpt lat="43.03284" lon="0.54197">
        <ele>577.8</ele>
        <time>2019-12-05T10:27:31.933Z</time>
      </trkpt>
      <trkpt lat="43.0329" lon="0.5421">
        <ele>576.4</ele>
        <time>2019-12-05T10:27:40.933Z</time>
      </trkpt>
      <trkpt lat="43.03294" lon="0.54221">
        <ele>575.5</ele>
        <time>2019-12-05T10:27:50.933Z</time>
      </trkpt>
      <trkpt lat="43.03297" lon="0.54231">
        <ele>574.7</ele>
        <time>2019-12-05T10:27:57.933Z</time>
      </trkpt>
      <trkpt lat="43.03302" lon="0.54245">
        <ele>573.5</ele>
        <time>2019-12-05T10:28:06.933Z</time>
      </trkpt>
      <trkpt lat="43.03307" lon="0.54254">
        <ele>572.5</ele>
        <time>2019-12-05T10:28:14.933Z</time>
      </trkpt>
      <trkpt lat="43.03311" lon="0.54266">
        <ele>571.6</ele>
        <time>2019-12-05T10:28:23.933Z</time>
      </trkpt>
      <trkpt lat="43.03311" lon="0.54266">
        <ele>571.6</ele>
        <time>2019-12-05T10:28:32.933Z</time>
      </trkpt>
      <trkpt lat="43.03314" lon="0.54268">
        <ele>571.3</ele>
        <time>2019-12-05T10:28:45.933Z</time>
      </trkpt>
      <trkpt lat="43.03321" lon="0.5427">
        <ele>570.6</ele>
        <time>2019-12-05T10:29:04.933Z</time>
      </trkpt>
      <trkpt lat="43.03315" lon="0.5427">
        <ele>570</ele>
        <time>2019-12-05T10:29:16.933Z</time>
      </trkpt>
      <trkpt lat="43.03314" lon="0.54272">
        <ele>569.8</ele>
        <time>2019-12-05T10:29:30.933Z</time>
      </trkpt>
      <trkpt lat="43.03308" lon="0.54279">
        <ele>555.8</ele>
        <time>2019-12-05T10:29:41.342Z</time>
      </trkpt>
      <trkpt lat="43.03308" lon="0.54281">
        <ele>555.8</ele>
        <time>2019-12-05T10:29:42.692Z</time>
      </trkpt>
      <trkpt lat="43.033" lon="0.54272">
        <ele>554.8</ele>
        <time>2019-12-05T10:29:56.049Z</time>
      </trkpt>
      <trkpt lat="43.03284" lon="0.54255">
        <ele>554.8</ele>
        <time>2019-12-05T10:30:20.711Z</time>
      </trkpt>
      <trkpt lat="43.03251" lon="0.54225">
        <ele>555.5</ele>
        <time>2019-12-05T10:31:11.521Z</time>
      </trkpt>
      <trkpt lat="43.0324" lon="0.54212">
        <ele>558</ele>
        <time>2019-12-05T10:31:27.890Z</time>
      </trkpt>
      <trkpt lat="43.03227" lon="0.54196">
        <ele>561.3</ele>
        <time>2019-12-05T10:31:48.669Z</time>
      </trkpt>
      <trkpt lat="43.03198" lon="0.54157">
        <ele>570</ele>
        <time>2019-12-05T10:32:35.872Z</time>
      </trkpt>
      <trkpt lat="43.03185" lon="0.54151">
        <ele>571.3</ele>
        <time>2019-12-05T10:32:49.361Z</time>
      </trkpt>
      <trkpt lat="43.03159" lon="0.54139">
        <ele>574.5</ele>
        <time>2019-12-05T10:33:16.293Z</time>
      </trkpt>
      <trkpt lat="43.03118" lon="0.54143">
        <ele>577.5</ele>
        <time>2019-12-05T10:33:57.844Z</time>
      </trkpt>
      <trkpt lat="43.03104" lon="0.54147">
        <ele>576.8</ele>
        <time>2019-12-05T10:34:11.164Z</time>
      </trkpt>
      <trkpt lat="43.03089" lon="0.54152">
        <ele>576.8</ele>
        <time>2019-12-05T10:34:26.545Z</time>
      </trkpt>
      <trkpt lat="43.02971" lon="0.54174">
        <ele>572.5</ele>
        <time>2019-12-05T10:36:25.056Z</time>
      </trkpt>
      <trkpt lat="43.02926" lon="0.54178">
        <ele>571.3</ele>
        <time>2019-12-05T10:37:09.099Z</time>
      </trkpt>
      <trkpt lat="43.02919" lon="0.54178">
        <ele>571.3</ele>
        <time>2019-12-05T10:37:16.042Z</time>
      </trkpt>
      <trkpt lat="43.02888" lon="0.54172">
        <ele>569.5</ele>
        <time>2019-12-05T10:37:43.689Z</time>
      </trkpt>
      <trkpt lat="43.02883" lon="0.54167">
        <ele>573.3</ele>
        <time>2019-12-05T10:37:49.124Z</time>
      </trkpt>
      <trkpt lat="43.02868" lon="0.54152">
        <ele>573.3</ele>
        <time>2019-12-05T10:38:05.290Z</time>
      </trkpt>
      <trkpt lat="43.02816" lon="0.54129">
        <ele>574.3</ele>
        <time>2019-12-05T10:38:53.062Z</time>
      </trkpt>
      <trkpt lat="43.02776" lon="0.54117">
        <ele>574</ele>
        <time>2019-12-05T10:39:28.255Z</time>
      </trkpt>
      <trkpt lat="43.02726" lon="0.54109">
        <ele>570.5</ele>
        <time>2019-12-05T10:40:12.863Z</time>
      </trkpt>
      <trkpt lat="43.02681" lon="0.54103">
        <ele>565.5</ele>
        <time>2019-12-05T10:40:51.651Z</time>
      </trkpt>
      <trkpt lat="43.02625" lon="0.54103">
        <ele>555.5</ele>
        <time>2019-12-05T10:41:45.079Z</time>
      </trkpt>
      <trkpt lat="43.02624" lon="0.54103">
        <ele>555.5</ele>
        <time>2019-12-05T10:41:46.312Z</time>
      </trkpt>
      <trkpt lat="43.02623" lon="0.54108">
        <ele>554</ele>
        <time>2019-12-05T10:41:49.817Z</time>
      </trkpt>
      <trkpt lat="43.02627" lon="0.54115">
        <ele>552.8</ele>
        <time>2019-12-05T10:41:55.922Z</time>
      </trkpt>
      <trkpt lat="43.0264" lon="0.54126">
        <ele>550</ele>
        <time>2019-12-05T10:42:11.045Z</time>
      </trkpt>
      <trkpt lat="43.02658" lon="0.54142">
        <ele>550</ele>
        <time>2019-12-05T10:42:31.416Z</time>
      </trkpt>
      <trkpt lat="43.02678" lon="0.54162">
        <ele>546.5</ele>
        <time>2019-12-05T10:42:54.344Z</time>
      </trkpt>
      <trkpt lat="43.02688" lon="0.54173">
        <ele>544.5</ele>
        <time>2019-12-05T10:43:06.963Z</time>
      </trkpt>
      <trkpt lat="43.0274" lon="0.54241">
        <ele>530.8</ele>
        <time>2019-12-05T10:44:15.019Z</time>
      </trkpt>
      <trkpt lat="43.02786" lon="0.54296">
        <ele>524.5</ele>
        <time>2019-12-05T10:45:12.966Z</time>
      </trkpt>
      <trkpt lat="43.02785" lon="0.54304">
        <ele>548.1</ele>
        <time>2019-12-05T10:45:18.528Z</time>
      </trkpt>
      <trkpt lat="43.02781" lon="0.54313">
        <ele>546.5</ele>
        <time>2019-12-05T10:45:27.528Z</time>
      </trkpt>
      <trkpt lat="43.02778" lon="0.54319">
        <ele>545.3</ele>
        <time>2019-12-05T10:45:35.528Z</time>
      </trkpt>
      <trkpt lat="43.02774" lon="0.54328">
        <ele>543.5</ele>
        <time>2019-12-05T10:45:45.528Z</time>
      </trkpt>
      <trkpt lat="43.02769" lon="0.54338">
        <ele>541.6</ele>
        <time>2019-12-05T10:45:54.528Z</time>
      </trkpt>
      <trkpt lat="43.02765" lon="0.54347">
        <ele>539.6</ele>
        <time>2019-12-05T10:46:03.528Z</time>
      </trkpt>
      <trkpt lat="43.0276" lon="0.54357">
        <ele>537.2</ele>
        <time>2019-12-05T10:46:11.528Z</time>
      </trkpt>
      <trkpt lat="43.02753" lon="0.5437">
        <ele>534</ele>
        <time>2019-12-05T10:46:20.528Z</time>
      </trkpt>
      <trkpt lat="43.02749" lon="0.54383">
        <ele>531.2</ele>
        <time>2019-12-05T10:46:30.528Z</time>
      </trkpt>
      <trkpt lat="43.02745" lon="0.54393">
        <ele>528.9</ele>
        <time>2019-12-05T10:46:37.528Z</time>
      </trkpt>
      <trkpt lat="43.02741" lon="0.54406">
        <ele>526</ele>
        <time>2019-12-05T10:46:47.528Z</time>
      </trkpt>
      <trkpt lat="43.02738" lon="0.54415">
        <ele>523.7</ele>
        <time>2019-12-05T10:46:55.528Z</time>
      </trkpt>
      <trkpt lat="43.02732" lon="0.54425">
        <ele>520.7</ele>
        <time>2019-12-05T10:47:03.528Z</time>
      </trkpt>
      <trkpt lat="43.02727" lon="0.54439">
        <ele>517.2</ele>
        <time>2019-12-05T10:47:12.528Z</time>
      </trkpt>
      <trkpt lat="43.02716" lon="0.54458">
        <ele>512.5</ele>
        <time>2019-12-05T10:47:41.467Z</time>
      </trkpt>
      <trkpt lat="43.02674" lon="0.54424">
        <ele>513</ele>
        <time>2019-12-05T10:48:59.536Z</time>
      </trkpt>
      <trkpt lat="43.02661" lon="0.54415">
        <ele>513</ele>
        <time>2019-12-05T10:49:22.830Z</time>
      </trkpt>
      <trkpt lat="43.0263" lon="0.54401">
        <ele>513.5</ele>
        <time>2019-12-05T10:50:14.838Z</time>
      </trkpt>
      <trkpt lat="43.02582" lon="0.54372">
        <ele>515.5</ele>
        <time>2019-12-05T10:51:39.498Z</time>
      </trkpt>
      <trkpt lat="43.02574" lon="0.54374">
        <ele>516</ele>
        <time>2019-12-05T10:51:51.696Z</time>
      </trkpt>
      <trkpt lat="43.02566" lon="0.54376">
        <ele>516.3</ele>
        <time>2019-12-05T10:52:05.553Z</time>
      </trkpt>
      <trkpt lat="43.02545" lon="0.54369">
        <ele>517.8</ele>
        <time>2019-12-05T10:52:39.726Z</time>
      </trkpt>
      <trkpt lat="43.0252" lon="0.54356">
        <ele>520</ele>
        <time>2019-12-05T10:53:22.173Z</time>
      </trkpt>
      <trkpt lat="43.02495" lon="0.54338">
        <ele>522.8</ele>
        <time>2019-12-05T10:54:07.032Z</time>
      </trkpt>
      <trkpt lat="43.02478" lon="0.54328">
        <ele>524.8</ele>
        <time>2019-12-05T10:54:36.353Z</time>
      </trkpt>
      <trkpt lat="43.02478" lon="0.54325">
        <ele>525.3</ele>
        <time>2019-12-05T10:54:40.930Z</time>
      </trkpt>
      <trkpt lat="43.02474" lon="0.54322">
        <ele>525.8</ele>
        <time>2019-12-05T10:54:47.660Z</time>
      </trkpt>
      <trkpt lat="43.02461" lon="0.54316">
        <ele>527.8</ele>
        <time>2019-12-05T10:55:10.780Z</time>
      </trkpt>
      <trkpt lat="43.02436" lon="0.54304">
        <ele>536.5</ele>
        <time>2019-12-05T10:55:51.912Z</time>
      </trkpt>
      <trkpt lat="43.024" lon="0.54286">
        <ele>536.5</ele>
        <time>2019-12-05T10:56:53.366Z</time>
      </trkpt>
      <trkpt lat="43.02391" lon="0.54279">
        <ele>537.5</ele>
        <time>2019-12-05T10:57:10.938Z</time>
      </trkpt>
      <trkpt lat="43.02382" lon="0.54278">
        <ele>537.3</ele>
        <time>2019-12-05T10:57:20.602Z</time>
      </trkpt>
      <trkpt lat="43.02378" lon="0.54278">
        <ele>537</ele>
        <time>2019-12-05T10:57:30.266Z</time>
      </trkpt>
      <trkpt lat="43.02367" lon="0.54283">
        <ele>535.8</ele>
        <time>2019-12-05T10:57:50.025Z</time>
      </trkpt>
      <trkpt lat="43.02355" lon="0.5429">
        <ele>534</ele>
        <time>2019-12-05T10:58:10.824Z</time>
      </trkpt>
      <trkpt lat="43.02345" lon="0.5429">
        <ele>533.5</ele>
        <time>2019-12-05T10:58:25.992Z</time>
      </trkpt>
      <trkpt lat="43.02325" lon="0.54282">
        <ele>533.8</ele>
        <time>2019-12-05T10:58:59.584Z</time>
      </trkpt>
      <trkpt lat="43.02317" lon="0.54284">
        <ele>532.8</ele>
        <time>2019-12-05T10:59:13.050Z</time>
      </trkpt>
      <trkpt lat="43.02294" lon="0.54315">
        <ele>526.8</ele>
        <time>2019-12-05T11:00:04.036Z</time>
      </trkpt>
      <trkpt lat="43.02286" lon="0.54322">
        <ele>525.5</ele>
        <time>2019-12-05T11:00:19.657Z</time>
      </trkpt>
      <trkpt lat="43.02279" lon="0.54319">
        <ele>525.5</ele>
        <time>2019-12-05T11:00:31.290Z</time>
      </trkpt>
      <trkpt lat="43.02273" lon="0.54321">
        <ele>525</ele>
        <time>2019-12-05T11:00:41.279Z</time>
      </trkpt>
      <trkpt lat="43.02275" lon="0.54325">
        <ele>524.8</ele>
        <time>2019-12-05T11:00:47.122Z</time>
      </trkpt>
      <trkpt lat="43.02277" lon="0.5433">
        <ele>527.4</ele>
        <time>2019-12-05T11:00:54.292Z</time>
      </trkpt>
      <trkpt lat="43.02275" lon="0.54334">
        <ele>527.1</ele>
        <time>2019-12-05T11:01:06.292Z</time>
      </trkpt>
      <trkpt lat="43.02275" lon="0.54335">
        <ele>526.9</ele>
        <time>2019-12-05T11:01:15.292Z</time>
      </trkpt>
      <trkpt lat="43.02277" lon="0.54344">
        <ele>526.3</ele>
        <time>2019-12-05T11:01:22.292Z</time>
      </trkpt>
      <trkpt lat="43.02282" lon="0.54353">
        <ele>525.3</ele>
        <time>2019-12-05T11:01:31.292Z</time>
      </trkpt>
      <trkpt lat="43.02285" lon="0.54355">
        <ele>525.2</ele>
        <time>2019-12-05T11:01:40.292Z</time>
      </trkpt>
      <trkpt lat="43.02283" lon="0.54354">
        <ele>525.2</ele>
        <time>2019-12-05T11:01:47.292Z</time>
      </trkpt>
      <trkpt lat="43.02285" lon="0.54353">
        <ele>525.1</ele>
        <time>2019-12-05T11:01:54.292Z</time>
      </trkpt>
      <trkpt lat="43.02286" lon="0.54353">
        <ele>525.1</ele>
        <time>2019-12-05T11:02:06.292Z</time>
      </trkpt>
      <trkpt lat="43.0229" lon="0.54358">
        <ele>525</ele>
        <time>2019-12-05T11:02:12.292Z</time>
      </trkpt>
      <trkpt lat="43.02294" lon="0.5436">
        <ele>524.9</ele>
        <time>2019-12-05T11:02:16.292Z</time>
      </trkpt>
      <trkpt lat="43.023" lon="0.54363">
        <ele>524.8</ele>
        <time>2019-12-05T11:02:22.292Z</time>
      </trkpt>
      <trkpt lat="43.02304" lon="0.54368">
        <ele>524.8</ele>
        <time>2019-12-05T11:02:28.292Z</time>
      </trkpt>
      <trkpt lat="43.02306" lon="0.5437">
        <ele>524.7</ele>
        <time>2019-12-05T11:02:36.292Z</time>
      </trkpt>
      <trkpt lat="43.02306" lon="0.54372">
        <ele>524.7</ele>
        <time>2019-12-05T11:02:43.292Z</time>
      </trkpt>
      <trkpt lat="43.02311" lon="0.54377">
        <ele>524.7</ele>
        <time>2019-12-05T11:02:50.292Z</time>
      </trkpt>
      <trkpt lat="43.02318" lon="0.54383">
        <ele>524.6</ele>
        <time>2019-12-05T11:02:58.292Z</time>
      </trkpt>
      <trkpt lat="43.02321" lon="0.54385">
        <ele>524.5</ele>
        <time>2019-12-05T11:03:06.292Z</time>
      </trkpt>
      <trkpt lat="43.02326" lon="0.54389">
        <ele>524.4</ele>
        <time>2019-12-05T11:03:12.292Z</time>
      </trkpt>
      <trkpt lat="43.02333" lon="0.54392">
        <ele>524.4</ele>
        <time>2019-12-05T11:03:20.292Z</time>
      </trkpt>
      <trkpt lat="43.02341" lon="0.54395">
        <ele>524.2</ele>
        <time>2019-12-05T11:03:29.292Z</time>
      </trkpt>
      <trkpt lat="43.0235" lon="0.544">
        <ele>524.1</ele>
        <time>2019-12-05T11:03:38.292Z</time>
      </trkpt>
      <trkpt lat="43.02359" lon="0.54406">
        <ele>523.9</ele>
        <time>2019-12-05T11:03:48.292Z</time>
      </trkpt>
      <trkpt lat="43.02367" lon="0.54411">
        <ele>523.7</ele>
        <time>2019-12-05T11:03:57.292Z</time>
      </trkpt>
      <trkpt lat="43.02369" lon="0.54413">
        <ele>523.6</ele>
        <time>2019-12-05T11:03:59.292Z</time>
      </trkpt>
      <trkpt lat="43.02378" lon="0.54417">
        <ele>523.3</ele>
        <time>2019-12-05T11:04:06.292Z</time>
      </trkpt>
      <trkpt lat="43.02388" lon="0.54423">
        <ele>522.8</ele>
        <time>2019-12-05T11:04:15.292Z</time>
      </trkpt>
      <trkpt lat="43.02393" lon="0.54426">
        <ele>522.7</ele>
        <time>2019-12-05T11:04:20.292Z</time>
      </trkpt>
      <trkpt lat="43.02401" lon="0.5443">
        <ele>522.5</ele>
        <time>2019-12-05T11:04:29.292Z</time>
      </trkpt>
      <trkpt lat="43.02407" lon="0.54433">
        <ele>522.4</ele>
        <time>2019-12-05T11:04:35.292Z</time>
      </trkpt>
      <trkpt lat="43.02411" lon="0.54436">
        <ele>522.4</ele>
        <time>2019-12-05T11:04:40.292Z</time>
      </trkpt>
      <trkpt lat="43.02418" lon="0.54442">
        <ele>522.3</ele>
        <time>2019-12-05T11:04:48.292Z</time>
      </trkpt>
      <trkpt lat="43.02424" lon="0.54447">
        <ele>522.2</ele>
        <time>2019-12-05T11:04:56.292Z</time>
      </trkpt>
      <trkpt lat="43.02429" lon="0.54451">
        <ele>522.1</ele>
        <time>2019-12-05T11:05:02.292Z</time>
      </trkpt>
      <trkpt lat="43.02434" lon="0.54458">
        <ele>521.9</ele>
        <time>2019-12-05T11:05:11.292Z</time>
      </trkpt>
      <trkpt lat="43.02435" lon="0.54463">
        <ele>521.8</ele>
        <time>2019-12-05T11:05:21.292Z</time>
      </trkpt>
      <trkpt lat="43.02431" lon="0.5446">
        <ele>521.7</ele>
        <time>2019-12-05T11:05:37.292Z</time>
      </trkpt>
      <trkpt lat="43.02432" lon="0.54471">
        <ele>521.5</ele>
        <time>2019-12-05T11:05:50.292Z</time>
      </trkpt>
      <trkpt lat="43.02433" lon="0.54477">
        <ele>521.4</ele>
        <time>2019-12-05T11:06:09.292Z</time>
      </trkpt>
      <trkpt lat="43.02437" lon="0.54478">
        <ele>521.3</ele>
        <time>2019-12-05T11:06:18.292Z</time>
      </trkpt>
      <trkpt lat="43.0244" lon="0.54483">
        <ele>521.2</ele>
        <time>2019-12-05T11:06:33.292Z</time>
      </trkpt>
      <trkpt lat="43.02445" lon="0.54487">
        <ele>521.1</ele>
        <time>2019-12-05T11:06:47.292Z</time>
      </trkpt>
      <trkpt lat="43.02454" lon="0.54493">
        <ele>520.9</ele>
        <time>2019-12-05T11:06:58.292Z</time>
      </trkpt>
      <trkpt lat="43.02457" lon="0.54505">
        <ele>518</ele>
        <time>2019-12-05T11:07:08.975Z</time>
      </trkpt>
      <trkpt lat="43.02457" lon="0.54507">
        <ele>518.3</ele>
        <time>2019-12-05T11:07:10.234Z</time>
      </trkpt>
      <trkpt lat="43.02462" lon="0.54532">
        <ele>519.8</ele>
        <time>2019-12-05T11:07:33.150Z</time>
      </trkpt>
      <trkpt lat="43.02465" lon="0.54572">
        <ele>521.5</ele>
        <time>2019-12-05T11:08:07.397Z</time>
      </trkpt>
      <trkpt lat="43.02473" lon="0.54596">
        <ele>522.8</ele>
        <time>2019-12-05T11:08:29.369Z</time>
      </trkpt>
      <trkpt lat="43.0247" lon="0.54602">
        <ele>524.5</ele>
        <time>2019-12-05T11:08:36.023Z</time>
      </trkpt>
      <trkpt lat="43.02469" lon="0.54611">
        <ele>526</ele>
        <time>2019-12-05T11:08:44.011Z</time>
      </trkpt>
      <trkpt lat="43.02485" lon="0.54634">
        <ele>526.3</ele>
        <time>2019-12-05T11:09:10.725Z</time>
      </trkpt>
      <trkpt lat="43.02502" lon="0.54665">
        <ele>526.3</ele>
        <time>2019-12-05T11:09:44.512Z</time>
      </trkpt>
      <trkpt lat="43.02512" lon="0.54693">
        <ele>528</ele>
        <time>2019-12-05T11:10:10.287Z</time>
      </trkpt>
      <trkpt lat="43.02513" lon="0.54696">
        <ele>528</ele>
        <time>2019-12-05T11:10:13.679Z</time>
      </trkpt>
      <trkpt lat="43.02515" lon="0.54721">
        <ele>530.3</ele>
        <time>2019-12-05T11:10:35.314Z</time>
      </trkpt>
      <trkpt lat="43.02514" lon="0.54727">
        <ele>531</ele>
        <time>2019-12-05T11:10:39.493Z</time>
      </trkpt>
      <trkpt lat="43.02512" lon="0.54744">
        <ele>533.8</ele>
        <time>2019-12-05T11:10:51.597Z</time>
      </trkpt>
      <trkpt lat="43.0251" lon="0.54772">
        <ele>538.3</ele>
        <time>2019-12-05T11:11:11.873Z</time>
      </trkpt>
      <trkpt lat="43.02512" lon="0.54779">
        <ele>539</ele>
        <time>2019-12-05T11:11:16.767Z</time>
      </trkpt>
      <trkpt lat="43.02513" lon="0.54785">
        <ele>539</ele>
        <time>2019-12-05T11:11:20.928Z</time>
      </trkpt>
      <trkpt lat="43.02514" lon="0.54797">
        <ele>540.5</ele>
        <time>2019-12-05T11:11:29.856Z</time>
      </trkpt>
      <trkpt lat="43.02522" lon="0.54824">
        <ele>541.5</ele>
        <time>2019-12-05T11:11:50.178Z</time>
      </trkpt>
      <trkpt lat="43.02521" lon="0.5483">
        <ele>542.8</ele>
        <time>2019-12-05T11:11:54.607Z</time>
      </trkpt>
      <trkpt lat="43.02521" lon="0.54831">
        <ele>541.3</ele>
        <time>2019-12-05T11:11:55.182Z</time>
      </trkpt>
      <trkpt lat="43.02521" lon="0.5483">
        <ele>542.8</ele>
        <time>2019-12-05T11:11:55.757Z</time>
      </trkpt>
      <trkpt lat="43.02519" lon="0.54833">
        <ele>543.8</ele>
        <time>2019-12-05T11:11:59.388Z</time>
      </trkpt>
      <trkpt lat="43.02515" lon="0.54832">
        <ele>545.3</ele>
        <time>2019-12-05T11:12:04.956Z</time>
      </trkpt>
      <trkpt lat="43.02511" lon="0.54825">
        <ele>545.8</ele>
        <time>2019-12-05T11:12:12.934Z</time>
      </trkpt>
      <trkpt lat="43.02505" lon="0.54806">
        <ele>545</ele>
        <time>2019-12-05T11:12:31.907Z</time>
      </trkpt>
      <trkpt lat="43.02494" lon="0.5478">
        <ele>545.5</ele>
        <time>2019-12-05T11:12:59.220Z</time>
      </trkpt>
      <trkpt lat="43.02484" lon="0.54759">
        <ele>547</ele>
        <time>2019-12-05T11:13:22.505Z</time>
      </trkpt>
      <trkpt lat="43.02471" lon="0.54738">
        <ele>548.8</ele>
        <time>2019-12-05T11:13:47.277Z</time>
      </trkpt>
      <trkpt lat="43.02452" lon="0.54712">
        <ele>550.8</ele>
        <time>2019-12-05T11:14:21.371Z</time>
      </trkpt>
      <trkpt lat="43.02448" lon="0.54705">
        <ele>550.8</ele>
        <time>2019-12-05T11:14:29.212Z</time>
      </trkpt>
      <trkpt lat="43.02424" lon="0.5468">
        <ele>551.5</ele>
        <time>2019-12-05T11:15:05.601Z</time>
      </trkpt>
      <trkpt lat="43.02419" lon="0.54674">
        <ele>551.8</ele>
        <time>2019-12-05T11:15:13.811Z</time>
      </trkpt>
      <trkpt lat="43.02392" lon="0.54653">
        <ele>554.5</ele>
        <time>2019-12-05T11:15:50.526Z</time>
      </trkpt>
      <trkpt lat="43.02317" lon="0.54618">
        <ele>563.5</ele>
        <time>2019-12-05T11:17:26.708Z</time>
      </trkpt>
      <trkpt lat="43.02315" lon="0.54617">
        <ele>563.5</ele>
        <time>2019-12-05T11:17:29.128Z</time>
      </trkpt>
      <trkpt lat="43.02255" lon="0.54598">
        <ele>569.8</ele>
        <time>2019-12-05T11:18:42.827Z</time>
      </trkpt>
      <trkpt lat="43.02251" lon="0.54601">
        <ele>574.5</ele>
        <time>2019-12-05T11:18:48.049Z</time>
      </trkpt>
      <trkpt lat="43.02246" lon="0.54604">
        <ele>574.5</ele>
        <time>2019-12-05T11:18:55.573Z</time>
      </trkpt>
      <trkpt lat="43.02235" lon="0.54605">
        <ele>577.3</ele>
        <time>2019-12-05T11:19:21.859Z</time>
      </trkpt>
      <trkpt lat="43.02217" lon="0.54603">
        <ele>580.5</ele>
        <time>2019-12-05T11:20:04.954Z</time>
      </trkpt>
      <trkpt lat="43.0218" lon="0.54601">
        <ele>588</ele>
        <time>2019-12-05T11:21:32.176Z</time>
      </trkpt>
      <trkpt lat="43.02088" lon="0.54627">
        <ele>618.5</ele>
        <time>2019-12-05T11:25:16.769Z</time>
      </trkpt>
      <trkpt lat="43.02061" lon="0.54635">
        <ele>618.5</ele>
        <time>2019-12-05T11:26:22.139Z</time>
      </trkpt>
      <trkpt lat="43.02045" lon="0.54649">
        <ele>631</ele>
        <time>2019-12-05T11:27:06.877Z</time>
      </trkpt>
      <trkpt lat="43.02023" lon="0.54669">
        <ele>631</ele>
        <time>2019-12-05T11:28:10.333Z</time>
      </trkpt>
      <trkpt lat="43.01995" lon="0.54711">
        <ele>654.5</ele>
        <time>2019-12-05T11:32:02.650Z</time>
      </trkpt>
      <trkpt lat="43.0198" lon="0.54732">
        <ele>654.5</ele>
        <time>2019-12-05T11:34:00.560Z</time>
      </trkpt>
      <trkpt lat="43.01932" lon="0.54823">
        <ele>707</ele>
        <time>2019-12-05T11:41:33.857Z</time>
      </trkpt>
      <trkpt lat="43.01896" lon="0.54891">
        <ele>707</ele>
        <time>2019-12-05T11:47:16.286Z</time>
      </trkpt>
      <trkpt lat="43.01875" lon="0.54945">
        <ele>722.5</ele>
        <time>2019-12-05T11:49:02.353Z</time>
      </trkpt>
      <trkpt lat="43.01868" lon="0.54964">
        <ele>722.5</ele>
        <time>2019-12-05T11:49:38.430Z</time>
      </trkpt>
      <trkpt lat="43.0185" lon="0.55042">
        <ele>730</ele>
        <time>2019-12-05T11:51:04.325Z</time>
      </trkpt>
      <trkpt lat="43.01846" lon="0.55072">
        <ele>732.5</ele>
        <time>2019-12-05T11:51:35.517Z</time>
      </trkpt>
      <trkpt lat="43.01828" lon="0.55121">
        <ele>734.8</ele>
        <time>2019-12-05T11:52:33.891Z</time>
      </trkpt>
      <trkpt lat="43.01826" lon="0.55124">
        <ele>737.5</ele>
        <time>2019-12-05T11:52:37.617Z</time>
      </trkpt>
      <trkpt lat="43.01808" lon="0.55167">
        <ele>737.5</ele>
        <time>2019-12-05T11:53:29.032Z</time>
      </trkpt>
      <trkpt lat="43.01802" lon="0.55182">
        <ele>737.5</ele>
        <time>2019-12-05T11:53:47.743Z</time>
      </trkpt>
      <trkpt lat="43.01767" lon="0.55208">
        <ele>748</ele>
        <time>2019-12-05T11:54:43.222Z</time>
      </trkpt>
      <trkpt lat="43.01748" lon="0.55222">
        <ele>748</ele>
        <time>2019-12-05T11:55:14.110Z</time>
      </trkpt>
      <trkpt lat="43.01726" lon="0.55246">
        <ele>758</ele>
        <time>2019-12-05T11:55:55.072Z</time>
      </trkpt>
      <trkpt lat="43.01704" lon="0.5527">
        <ele>758</ele>
        <time>2019-12-05T11:56:35.218Z</time>
      </trkpt>
      <trkpt lat="43.01682" lon="0.55311">
        <ele>759.3</ele>
        <time>2019-12-05T11:57:24.451Z</time>
      </trkpt>
      <trkpt lat="43.01671" lon="0.55335">
        <ele>759</ele>
        <time>2019-12-05T11:57:51.656Z</time>
      </trkpt>
      <trkpt lat="43.01665" lon="0.55339">
        <ele>759.5</ele>
        <time>2019-12-05T11:58:00.425Z</time>
      </trkpt>
      <trkpt lat="43.01647" lon="0.55354">
        <ele>759.5</ele>
        <time>2019-12-05T11:58:28.194Z</time>
      </trkpt>
      <trkpt lat="43.01641" lon="0.55375">
        <ele>757</ele>
        <time>2019-12-05T11:58:50.347Z</time>
      </trkpt>
      <trkpt lat="43.01631" lon="0.55394">
        <ele>754.5</ele>
        <time>2019-12-05T11:59:13.318Z</time>
      </trkpt>
      <trkpt lat="43.01626" lon="0.55404">
        <ele>753</ele>
        <time>2019-12-05T11:59:25.039Z</time>
      </trkpt>
      <trkpt lat="43.01626" lon="0.55414">
        <ele>751.8</ele>
        <time>2019-12-05T11:59:38.374Z</time>
      </trkpt>
      <trkpt lat="43.01626" lon="0.55424">
        <ele>751</ele>
        <time>2019-12-05T11:59:50.533Z</time>
      </trkpt>
      <trkpt lat="43.01622" lon="0.55439">
        <ele>751.3</ele>
        <time>2019-12-05T12:00:12.636Z</time>
      </trkpt>
      <trkpt lat="43.01626" lon="0.55456">
        <ele>751.5</ele>
        <time>2019-12-05T12:00:35.295Z</time>
      </trkpt>
      <trkpt lat="43.01631" lon="0.55471">
        <ele>752.3</ele>
        <time>2019-12-05T12:00:57.153Z</time>
      </trkpt>
      <trkpt lat="43.01641" lon="0.55485">
        <ele>753.8</ele>
        <time>2019-12-05T12:01:22.846Z</time>
      </trkpt>
      <trkpt lat="43.01649" lon="0.55513">
        <ele>757.3</ele>
        <time>2019-12-05T12:02:02.091Z</time>
      </trkpt>
      <trkpt lat="43.01649" lon="0.55556">
        <ele>762.3</ele>
        <time>2019-12-05T12:02:58.176Z</time>
      </trkpt>
      <trkpt lat="43.01655" lon="0.556">
        <ele>768.3</ele>
        <time>2019-12-05T12:03:56.015Z</time>
      </trkpt>
      <trkpt lat="43.01656" lon="0.55602">
        <ele>772</ele>
        <time>2019-12-05T12:04:00.007Z</time>
      </trkpt>
      <trkpt lat="43.01663" lon="0.5563">
        <ele>772</ele>
        <time>2019-12-05T12:04:38.264Z</time>
      </trkpt>
      <trkpt lat="43.01669" lon="0.55659">
        <ele>775</ele>
        <time>2019-12-05T12:05:16.892Z</time>
      </trkpt>
      <trkpt lat="43.01677" lon="0.55681">
        <ele>776.8</ele>
        <time>2019-12-05T12:05:49.373Z</time>
      </trkpt>
      <trkpt lat="43.01694" lon="0.55695">
        <ele>781.8</ele>
        <time>2019-12-05T12:06:24.672Z</time>
      </trkpt>
      <trkpt lat="43.01695" lon="0.55697">
        <ele>781.8</ele>
        <time>2019-12-05T12:06:27.919Z</time>
      </trkpt>
      <trkpt lat="43.01705" lon="0.55703">
        <ele>784.8</ele>
        <time>2019-12-05T12:06:51.269Z</time>
      </trkpt>
      <trkpt lat="43.01731" lon="0.55699">
        <ele>793</ele>
        <time>2019-12-05T12:07:45.793Z</time>
      </trkpt>
      <trkpt lat="43.01739" lon="0.55707">
        <ele>796.3</ele>
        <time>2019-12-05T12:08:07.325Z</time>
      </trkpt>
      <trkpt lat="43.01756" lon="0.55704">
        <ele>800.5</ele>
        <time>2019-12-05T12:08:42.142Z</time>
      </trkpt>
      <trkpt lat="43.01763" lon="0.55707">
        <ele>801.8</ele>
        <time>2019-12-05T12:08:57.368Z</time>
      </trkpt>
      <trkpt lat="43.01767" lon="0.55701">
        <ele>801.8</ele>
        <time>2019-12-05T12:09:09.920Z</time>
      </trkpt>
      <trkpt lat="43.01772" lon="0.55709">
        <ele>803.3</ele>
        <time>2019-12-05T12:09:25.738Z</time>
      </trkpt>
      <trkpt lat="43.01778" lon="0.55703">
        <ele>803.5</ele>
        <time>2019-12-05T12:09:40.438Z</time>
      </trkpt>
      <trkpt lat="43.01785" lon="0.55703">
        <ele>805.5</ele>
        <time>2019-12-05T12:09:55.592Z</time>
      </trkpt>
      <trkpt lat="43.01788" lon="0.55703">
        <ele>804.5</ele>
        <time>2019-12-05T12:10:02.323Z</time>
      </trkpt>
      <trkpt lat="43.0179" lon="0.55705">
        <ele>804.8</ele>
        <time>2019-12-05T12:10:10.323Z</time>
      </trkpt>
      <trkpt lat="43.01789" lon="0.55704">
        <ele>805</ele>
        <time>2019-12-05T12:10:20.323Z</time>
      </trkpt>
      <trkpt lat="43.0179" lon="0.55704">
        <ele>805.1</ele>
        <time>2019-12-05T12:10:32.323Z</time>
      </trkpt>
      <trkpt lat="43.0179" lon="0.55705">
        <ele>805.3</ele>
        <time>2019-12-05T12:10:53.323Z</time>
      </trkpt>
      <trkpt lat="43.01791" lon="0.55705">
        <ele>805.4</ele>
        <time>2019-12-05T12:11:11.323Z</time>
      </trkpt>
      <trkpt lat="43.0179" lon="0.55706">
        <ele>805.5</ele>
        <time>2019-12-05T12:11:22.323Z</time>
      </trkpt>
      <trkpt lat="43.01791" lon="0.55709">
        <ele>805.9</ele>
        <time>2019-12-05T12:11:32.323Z</time>
      </trkpt>
      <trkpt lat="43.01791" lon="0.55713">
        <ele>806.2</ele>
        <time>2019-12-05T12:11:46.323Z</time>
      </trkpt>
      <trkpt lat="43.01796" lon="0.55714">
        <ele>806.7</ele>
        <time>2019-12-05T12:11:56.323Z</time>
      </trkpt>
      <trkpt lat="43.01799" lon="0.55714">
        <ele>806.9</ele>
        <time>2019-12-05T12:12:06.323Z</time>
      </trkpt>
      <trkpt lat="43.01803" lon="0.55722">
        <ele>807.2</ele>
        <time>2019-12-05T12:12:15.323Z</time>
      </trkpt>
      <trkpt lat="43.01808" lon="0.55731">
        <ele>807.3</ele>
        <time>2019-12-05T12:12:26.323Z</time>
      </trkpt>
      <trkpt lat="43.01816" lon="0.55739">
        <ele>807.3</ele>
        <time>2019-12-05T12:12:38.323Z</time>
      </trkpt>
      <trkpt lat="43.01821" lon="0.55745">
        <ele>807.3</ele>
        <time>2019-12-05T12:12:45.323Z</time>
      </trkpt>
      <trkpt lat="43.0183" lon="0.55751">
        <ele>807.1</ele>
        <time>2019-12-05T12:12:55.323Z</time>
      </trkpt>
      <trkpt lat="43.01835" lon="0.55756">
        <ele>806.8</ele>
        <time>2019-12-05T12:13:04.323Z</time>
      </trkpt>
      <trkpt lat="43.01843" lon="0.55757">
        <ele>806.1</ele>
        <time>2019-12-05T12:13:14.323Z</time>
      </trkpt>
      <trkpt lat="43.01852" lon="0.55759">
        <ele>805.2</ele>
        <time>2019-12-05T12:13:25.323Z</time>
      </trkpt>
      <trkpt lat="43.01863" lon="0.55763">
        <ele>804.2</ele>
        <time>2019-12-05T12:13:35.323Z</time>
      </trkpt>
      <trkpt lat="43.01868" lon="0.55767">
        <ele>803.7</ele>
        <time>2019-12-05T12:13:44.323Z</time>
      </trkpt>
      <trkpt lat="43.0187" lon="0.55765">
        <ele>803.4</ele>
        <time>2019-12-05T12:13:56.323Z</time>
      </trkpt>
      <trkpt lat="43.01879" lon="0.55765">
        <ele>801</ele>
        <time>2019-12-05T12:14:05.323Z</time>
      </trkpt>
      <trkpt lat="43.0189" lon="0.55766">
        <ele>799.4</ele>
        <time>2019-12-05T12:14:15.323Z</time>
      </trkpt>
      <trkpt lat="43.01901" lon="0.55769">
        <ele>807.8</ele>
        <time>2019-12-05T12:14:33.611Z</time>
      </trkpt>
      <trkpt lat="43.01905" lon="0.55769">
        <ele>807.5</ele>
        <time>2019-12-05T12:14:40.914Z</time>
      </trkpt>
      <trkpt lat="43.01909" lon="0.55765">
        <ele>807.3</ele>
        <time>2019-12-05T12:14:48.974Z</time>
      </trkpt>
      <trkpt lat="43.01909" lon="0.55757">
        <ele>807.5</ele>
        <time>2019-12-05T12:14:59.190Z</time>
      </trkpt>
      <trkpt lat="43.01912" lon="0.55749">
        <ele>806.3</ele>
        <time>2019-12-05T12:15:09.505Z</time>
      </trkpt>
      <trkpt lat="43.01914" lon="0.55746">
        <ele>806.3</ele>
        <time>2019-12-05T12:15:14.735Z</time>
      </trkpt>
      <trkpt lat="43.01923" lon="0.55733">
        <ele>800.3</ele>
        <time>2019-12-05T12:15:37.467Z</time>
      </trkpt>
      <trkpt lat="43.01929" lon="0.55726">
        <ele>796.3</ele>
        <time>2019-12-05T12:15:50.026Z</time>
      </trkpt>
      <trkpt lat="43.0193" lon="0.55723">
        <ele>795.3</ele>
        <time>2019-12-05T12:15:54.292Z</time>
      </trkpt>
      <trkpt lat="43.01928" lon="0.5572">
        <ele>795.3</ele>
        <time>2019-12-05T12:15:59.011Z</time>
      </trkpt>
      <trkpt lat="43.0193" lon="0.5572">
        <ele>794.3</ele>
        <time>2019-12-05T12:16:02.596Z</time>
      </trkpt>
      <trkpt lat="43.01933" lon="0.55716">
        <ele>792.3</ele>
        <time>2019-12-05T12:16:09.292Z</time>
      </trkpt>
      <trkpt lat="43.01934" lon="0.55712">
        <ele>790.3</ele>
        <time>2019-12-05T12:16:14.831Z</time>
      </trkpt>
      <trkpt lat="43.01934" lon="0.55713">
        <ele>785.1</ele>
        <time>2019-12-05T12:16:16.642Z</time>
      </trkpt>
      <trkpt lat="43.01935" lon="0.55715">
        <ele>784.8</ele>
        <time>2019-12-05T12:16:27.642Z</time>
      </trkpt>
      <trkpt lat="43.01935" lon="0.55715">
        <ele>784.7</ele>
        <time>2019-12-05T12:16:43.642Z</time>
      </trkpt>
      <trkpt lat="43.01935" lon="0.55715">
        <ele>784.6</ele>
        <time>2019-12-05T12:16:54.642Z</time>
      </trkpt>
      <trkpt lat="43.01934" lon="0.55717">
        <ele>784.3</ele>
        <time>2019-12-05T12:17:11.642Z</time>
      </trkpt>
      <trkpt lat="43.01934" lon="0.55716">
        <ele>784.2</ele>
        <time>2019-12-05T12:17:25.642Z</time>
      </trkpt>
      <trkpt lat="43.01933" lon="0.55717">
        <ele>783.9</ele>
        <time>2019-12-05T12:17:39.642Z</time>
      </trkpt>
      <trkpt lat="43.01935" lon="0.55716">
        <ele>783.4</ele>
        <time>2019-12-05T12:17:57.642Z</time>
      </trkpt>
      <trkpt lat="43.01935" lon="0.55715">
        <ele>783.2</ele>
        <time>2019-12-05T12:18:12.642Z</time>
      </trkpt>
      <trkpt lat="43.01933" lon="0.55715">
        <ele>782.8</ele>
        <time>2019-12-05T12:18:33.642Z</time>
      </trkpt>
      <trkpt lat="43.01932" lon="0.55718">
        <ele>782.2</ele>
        <time>2019-12-05T12:18:40.642Z</time>
      </trkpt>
      <trkpt lat="43.01932" lon="0.55721">
        <ele>781.9</ele>
        <time>2019-12-05T12:18:49.642Z</time>
      </trkpt>
      <trkpt lat="43.01931" lon="0.55726">
        <ele>780.9</ele>
        <time>2019-12-05T12:18:57.642Z</time>
      </trkpt>
      <trkpt lat="43.01927" lon="0.55732">
        <ele>782.7</ele>
        <time>2019-12-05T12:19:08.642Z</time>
      </trkpt>
      <trkpt lat="43.01922" lon="0.55736">
        <ele>784.6</ele>
        <time>2019-12-05T12:19:17.642Z</time>
      </trkpt>
      <trkpt lat="43.01918" lon="0.5574">
        <ele>786.4</ele>
        <time>2019-12-05T12:19:24.642Z</time>
      </trkpt>
      <trkpt lat="43.01914" lon="0.55743">
        <ele>787.9</ele>
        <time>2019-12-05T12:19:42.642Z</time>
      </trkpt>
      <trkpt lat="43.01916" lon="0.55745">
        <ele>788.6</ele>
        <time>2019-12-05T12:19:51.642Z</time>
      </trkpt>
      <trkpt lat="43.01914" lon="0.55749">
        <ele>790</ele>
        <time>2019-12-05T12:20:00.642Z</time>
      </trkpt>
      <trkpt lat="43.01913" lon="0.55752">
        <ele>790.8</ele>
        <time>2019-12-05T12:20:10.642Z</time>
      </trkpt>
      <trkpt lat="43.01911" lon="0.55757">
        <ele>792.1</ele>
        <time>2019-12-05T12:20:18.642Z</time>
      </trkpt>
      <trkpt lat="43.01908" lon="0.55764">
        <ele>794.2</ele>
        <time>2019-12-05T12:20:27.642Z</time>
      </trkpt>
      <trkpt lat="43.019" lon="0.55769">
        <ele>796.6</ele>
        <time>2019-12-05T12:20:37.642Z</time>
      </trkpt>
      <trkpt lat="43.01892" lon="0.55771">
        <ele>798.4</ele>
        <time>2019-12-05T12:20:47.642Z</time>
      </trkpt>
      <trkpt lat="43.01882" lon="0.55772">
        <ele>800.6</ele>
        <time>2019-12-05T12:20:56.642Z</time>
      </trkpt>
      <trkpt lat="43.01873" lon="0.55773">
        <ele>810.5</ele>
        <time>2019-12-05T12:21:12.864Z</time>
      </trkpt>
      <trkpt lat="43.01875" lon="0.55776">
        <ele>810</ele>
        <time>2019-12-05T12:21:18.832Z</time>
      </trkpt>
      <trkpt lat="43.01892" lon="0.55796">
        <ele>807.5</ele>
        <time>2019-12-05T12:21:56.616Z</time>
      </trkpt>
      <trkpt lat="43.01912" lon="0.55824">
        <ele>805.3</ele>
        <time>2019-12-05T12:22:47.361Z</time>
      </trkpt>
      <trkpt lat="43.0193" lon="0.55853">
        <ele>794.3</ele>
        <time>2019-12-05T12:23:35.763Z</time>
      </trkpt>
      <trkpt lat="43.01931" lon="0.55856">
        <ele>794.3</ele>
        <time>2019-12-05T12:23:40.192Z</time>
      </trkpt>
      <trkpt lat="43.0195" lon="0.55903">
        <ele>779</ele>
        <time>2019-12-05T12:24:22.275Z</time>
      </trkpt>
      <trkpt lat="43.01958" lon="0.55932">
        <ele>772.5</ele>
        <time>2019-12-05T12:24:46.269Z</time>
      </trkpt>
      <trkpt lat="43.01975" lon="0.56073">
        <ele>751.5</ele>
        <time>2019-12-05T12:26:38.129Z</time>
      </trkpt>
      <trkpt lat="43.01983" lon="0.56091">
        <ele>748.3</ele>
        <time>2019-12-05T12:27:02.401Z</time>
      </trkpt>
      <trkpt lat="43.01999" lon="0.56131">
        <ele>741.3</ele>
        <time>2019-12-05T12:27:55.260Z</time>
      </trkpt>
      <trkpt lat="43.02015" lon="0.56159">
        <ele>731.3</ele>
        <time>2019-12-05T12:28:37.299Z</time>
      </trkpt>
      <trkpt lat="43.02047" lon="0.56188">
        <ele>717</ele>
        <time>2019-12-05T12:29:37.840Z</time>
      </trkpt>
      <trkpt lat="43.02084" lon="0.56261">
        <ele>704.5</ele>
        <time>2019-12-05T12:31:21.636Z</time>
      </trkpt>
      <trkpt lat="43.02086" lon="0.56267">
        <ele>680.5</ele>
        <time>2019-12-05T12:31:29.318Z</time>
      </trkpt>
      <trkpt lat="43.02114" lon="0.56334">
        <ele>680.5</ele>
        <time>2019-12-05T12:32:58.554Z</time>
      </trkpt>
      <trkpt lat="43.02122" lon="0.56357">
        <ele>656.3</ele>
        <time>2019-12-05T12:33:23.335Z</time>
      </trkpt>
      <trkpt lat="43.02131" lon="0.56383">
        <ele>656.3</ele>
        <time>2019-12-05T12:33:51.185Z</time>
      </trkpt>
      <trkpt lat="43.02144" lon="0.56421">
        <ele>656.3</ele>
        <time>2019-12-05T12:34:32.019Z</time>
      </trkpt>
      <trkpt lat="43.02149" lon="0.56443">
        <ele>651.5</ele>
        <time>2019-12-05T12:35:11.013Z</time>
      </trkpt>
      <trkpt lat="43.02154" lon="0.56468">
        <ele>632.8</ele>
        <time>2019-12-05T12:35:54.860Z</time>
      </trkpt>
      <trkpt lat="43.02162" lon="0.56503">
        <ele>632.8</ele>
        <time>2019-12-05T12:36:56.482Z</time>
      </trkpt>
      <trkpt lat="43.02169" lon="0.56532">
        <ele>632.8</ele>
        <time>2019-12-05T12:37:49.020Z</time>
      </trkpt>
      <trkpt lat="43.02178" lon="0.56565">
        <ele>624.5</ele>
        <time>2019-12-05T12:38:30.068Z</time>
      </trkpt>
      <trkpt lat="43.02189" lon="0.56617">
        <ele>612.8</ele>
        <time>2019-12-05T12:39:35.319Z</time>
      </trkpt>
      <trkpt lat="43.02199" lon="0.56672">
        <ele>602.8</ele>
        <time>2019-12-05T12:40:42.271Z</time>
      </trkpt>
      <trkpt lat="43.022" lon="0.56687">
        <ele>598</ele>
        <time>2019-12-05T12:40:59.467Z</time>
      </trkpt>
      <trkpt lat="43.02201" lon="0.56708">
        <ele>598</ele>
        <time>2019-12-05T12:41:25.261Z</time>
      </trkpt>
      <trkpt lat="43.02201" lon="0.56712">
        <ele>597.5</ele>
        <time>2019-12-05T12:41:30.295Z</time>
      </trkpt>
      <trkpt lat="43.02208" lon="0.56762">
        <ele>588.8</ele>
        <time>2019-12-05T12:42:41.331Z</time>
      </trkpt>
      <trkpt lat="43.02207" lon="0.56758">
        <ele>597.5</ele>
        <time>2019-12-05T12:42:47.518Z</time>
      </trkpt>
      <trkpt lat="43.02208" lon="0.56765">
        <ele>592.3</ele>
        <time>2019-12-05T12:42:52.333Z</time>
      </trkpt>
      <trkpt lat="43.02212" lon="0.56795">
        <ele>588.8</ele>
        <time>2019-12-05T12:43:14.651Z</time>
      </trkpt>
      <trkpt lat="43.02212" lon="0.56801">
        <ele>588.8</ele>
        <time>2019-12-05T12:43:18.796Z</time>
      </trkpt>
      <trkpt lat="43.0222" lon="0.56816">
        <ele>588</ele>
        <time>2019-12-05T12:43:32.058Z</time>
      </trkpt>
      <trkpt lat="43.02248" lon="0.56846">
        <ele>588.8</ele>
        <time>2019-12-05T12:44:06.535Z</time>
      </trkpt>
      <trkpt lat="43.0225" lon="0.56853">
        <ele>575.1</ele>
        <time>2019-12-05T12:44:11.896Z</time>
      </trkpt>
      <trkpt lat="43.0225" lon="0.56862">
        <ele>574.4</ele>
        <time>2019-12-05T12:44:18.896Z</time>
      </trkpt>
      <trkpt lat="43.02252" lon="0.56872">
        <ele>573.4</ele>
        <time>2019-12-05T12:44:26.896Z</time>
      </trkpt>
      <trkpt lat="43.02253" lon="0.56881">
        <ele>572.7</ele>
        <time>2019-12-05T12:44:35.896Z</time>
      </trkpt>
      <trkpt lat="43.02253" lon="0.56883">
        <ele>572.6</ele>
        <time>2019-12-05T12:44:36.896Z</time>
      </trkpt>
      <trkpt lat="43.02258" lon="0.56893">
        <ele>586</ele>
        <time>2019-12-05T12:44:46.169Z</time>
      </trkpt>
      <trkpt lat="43.02263" lon="0.56915">
        <ele>584.8</ele>
        <time>2019-12-05T12:45:03.027Z</time>
      </trkpt>
      <trkpt lat="43.02268" lon="0.56966">
        <ele>578.8</ele>
        <time>2019-12-05T12:45:41.685Z</time>
      </trkpt>
      <trkpt lat="43.02269" lon="0.56971">
        <ele>578.8</ele>
        <time>2019-12-05T12:45:45.366Z</time>
      </trkpt>
      <trkpt lat="43.02268" lon="0.56976">
        <ele>578.5</ele>
        <time>2019-12-05T12:45:51.178Z</time>
      </trkpt>
      <trkpt lat="43.02266" lon="0.56997">
        <ele>577.5</ele>
        <time>2019-12-05T12:46:16.380Z</time>
      </trkpt>
      <trkpt lat="43.02262" lon="0.57009">
        <ele>574</ele>
        <time>2019-12-05T12:46:32.236Z</time>
      </trkpt>
      <trkpt lat="43.02257" lon="0.57024">
        <ele>574</ele>
        <time>2019-12-05T12:46:51.427Z</time>
      </trkpt>
      <trkpt lat="43.02248" lon="0.5704">
        <ele>571.5</ele>
        <time>2019-12-05T12:47:15.956Z</time>
      </trkpt>
      <trkpt lat="43.02239" lon="0.57062">
        <ele>565</ele>
        <time>2019-12-05T12:47:45.322Z</time>
      </trkpt>
      <trkpt lat="43.02245" lon="0.57067">
        <ele>563.3</ele>
        <time>2019-12-05T12:47:56.996Z</time>
      </trkpt>
      <trkpt lat="43.02254" lon="0.57075">
        <ele>563.3</ele>
        <time>2019-12-05T12:48:13.963Z</time>
      </trkpt>
      <trkpt lat="43.02312" lon="0.57099">
        <ele>548.5</ele>
        <time>2019-12-05T12:49:40.691Z</time>
      </trkpt>
      <trkpt lat="43.02341" lon="0.57106">
        <ele>541</ele>
        <time>2019-12-05T12:50:21.858Z</time>
      </trkpt>
      <trkpt lat="43.02348" lon="0.57104">
        <ele>535.5</ele>
        <time>2019-12-05T12:50:31.794Z</time>
      </trkpt>
      <trkpt lat="43.02357" lon="0.57102">
        <ele>535.5</ele>
        <time>2019-12-05T12:50:45.308Z</time>
      </trkpt>
      <trkpt lat="43.02387" lon="0.57124">
        <ele>519.3</ele>
        <time>2019-12-05T12:51:32.924Z</time>
      </trkpt>
      <trkpt lat="43.02389" lon="0.5713">
        <ele>516.5</ele>
        <time>2019-12-05T12:51:40.104Z</time>
      </trkpt>
      <trkpt lat="43.0239" lon="0.57132">
        <ele>516.5</ele>
        <time>2019-12-05T12:51:42.635Z</time>
      </trkpt>
      <trkpt lat="43.02398" lon="0.57124">
        <ele>515</ele>
        <time>2019-12-05T12:51:55.269Z</time>
      </trkpt>
      <trkpt lat="43.02404" lon="0.57112">
        <ele>515</ele>
        <time>2019-12-05T12:52:08.840Z</time>
      </trkpt>
      <trkpt lat="43.02412" lon="0.57097">
        <ele>514.3</ele>
        <time>2019-12-05T12:52:26.599Z</time>
      </trkpt>
      <trkpt lat="43.02415" lon="0.57079">
        <ele>515.8</ele>
        <time>2019-12-05T12:52:43.840Z</time>
      </trkpt>
      <trkpt lat="43.02422" lon="0.57067">
        <ele>513.8</ele>
        <time>2019-12-05T12:52:58.248Z</time>
      </trkpt>
      <trkpt lat="43.02424" lon="0.57055">
        <ele>513.5</ele>
        <time>2019-12-05T12:53:09.833Z</time>
      </trkpt>
      <trkpt lat="43.02423" lon="0.57047">
        <ele>514.8</ele>
        <time>2019-12-05T12:53:16.868Z</time>
      </trkpt>
      <trkpt lat="43.02423" lon="0.5704">
        <ele>515.3</ele>
        <time>2019-12-05T12:53:23.852Z</time>
      </trkpt>
      <trkpt lat="43.02426" lon="0.57036">
        <ele>513.5</ele>
        <time>2019-12-05T12:53:29.011Z</time>
      </trkpt>
      <trkpt lat="43.02427" lon="0.57035">
        <ele>513.5</ele>
        <time>2019-12-05T12:53:31.109Z</time>
      </trkpt>
      <trkpt lat="43.02431" lon="0.57036">
        <ele>511.5</ele>
        <time>2019-12-05T12:53:36.270Z</time>
      </trkpt>
      <trkpt lat="43.02433" lon="0.5704">
        <ele>509.8</ele>
        <time>2019-12-05T12:53:41.681Z</time>
      </trkpt>
      <trkpt lat="43.02433" lon="0.57045">
        <ele>509.3</ele>
        <time>2019-12-05T12:53:46.213Z</time>
      </trkpt>
      <trkpt lat="43.02433" lon="0.57046">
        <ele>509.3</ele>
        <time>2019-12-05T12:53:46.612Z</time>
      </trkpt>
      <trkpt lat="43.02431" lon="0.57055">
        <ele>509.8</ele>
        <time>2019-12-05T12:53:55.288Z</time>
      </trkpt>
      <trkpt lat="43.02432" lon="0.5707">
        <ele>508.3</ele>
        <time>2019-12-05T12:54:09.661Z</time>
      </trkpt>
      <trkpt lat="43.02436" lon="0.57097">
        <ele>503.3</ele>
        <time>2019-12-05T12:54:34.720Z</time>
      </trkpt>
      <trkpt lat="43.0244" lon="0.57116">
        <ele>499</ele>
        <time>2019-12-05T12:54:52.709Z</time>
      </trkpt>
      <trkpt lat="43.02444" lon="0.57126">
        <ele>495.8</ele>
        <time>2019-12-05T12:55:03.458Z</time>
      </trkpt>
      <trkpt lat="43.02445" lon="0.57129">
        <ele>494.5</ele>
        <time>2019-12-05T12:55:06.336Z</time>
      </trkpt>
      <trkpt lat="43.02445" lon="0.57132">
        <ele>494.5</ele>
        <time>2019-12-05T12:55:09.356Z</time>
      </trkpt>
      <trkpt lat="43.0244" lon="0.57157">
        <ele>493.5</ele>
        <time>2019-12-05T12:55:32.558Z</time>
      </trkpt>
      <trkpt lat="43.02438" lon="0.57188">
        <ele>488.5</ele>
        <time>2019-12-05T12:56:00.706Z</time>
      </trkpt>
      <trkpt lat="43.02444" lon="0.57207">
        <ele>483</ele>
        <time>2019-12-05T12:56:19.555Z</time>
      </trkpt>
      <trkpt lat="43.02445" lon="0.57218">
        <ele>480.3</ele>
        <time>2019-12-05T12:56:30.213Z</time>
      </trkpt>
      <trkpt lat="43.02442" lon="0.5724">
        <ele>476.8</ele>
        <time>2019-12-05T12:56:50.201Z</time>
      </trkpt>
      <trkpt lat="43.02443" lon="0.5726">
        <ele>473.8</ele>
        <time>2019-12-05T12:57:08.855Z</time>
      </trkpt>
      <trkpt lat="43.02442" lon="0.57276">
        <ele>472.5</ele>
        <time>2019-12-05T12:57:31.016Z</time>
      </trkpt>
      <trkpt lat="43.02441" lon="0.57281">
        <ele>472.3</ele>
        <time>2019-12-05T12:57:38.214Z</time>
      </trkpt>
      <trkpt lat="43.02443" lon="0.57286">
        <ele>471.8</ele>
        <time>2019-12-05T12:57:45.204Z</time>
      </trkpt>
      <trkpt lat="43.02445" lon="0.57288">
        <ele>471.5</ele>
        <time>2019-12-05T12:57:50.046Z</time>
      </trkpt>
      <trkpt lat="43.02446" lon="0.57289">
        <ele>470.3</ele>
        <time>2019-12-05T12:57:52.880Z</time>
      </trkpt>
      <trkpt lat="43.02456" lon="0.5729">
        <ele>470.3</ele>
        <time>2019-12-05T12:58:11.641Z</time>
      </trkpt>
      <trkpt lat="43.02463" lon="0.57295">
        <ele>469.3</ele>
        <time>2019-12-05T12:58:26.786Z</time>
      </trkpt>
      <trkpt lat="43.02474" lon="0.57292">
        <ele>465.8</ele>
        <time>2019-12-05T12:58:47.802Z</time>
      </trkpt>
      <trkpt lat="43.02476" lon="0.57294">
        <ele>473.4</ele>
        <time>2019-12-05T12:58:53.269Z</time>
      </trkpt>
      <trkpt lat="43.0248" lon="0.57293">
        <ele>473.7</ele>
        <time>2019-12-05T12:58:58.269Z</time>
      </trkpt>
      <trkpt lat="43.02483" lon="0.57291">
        <ele>474</ele>
        <time>2019-12-05T12:59:07.269Z</time>
      </trkpt>
      <trkpt lat="43.02492" lon="0.57287">
        <ele>474.6</ele>
        <time>2019-12-05T12:59:14.269Z</time>
      </trkpt>
      <trkpt lat="43.02493" lon="0.57288">
        <ele>474.7</ele>
        <time>2019-12-05T12:59:24.269Z</time>
      </trkpt>
      <trkpt lat="43.02498" lon="0.57288">
        <ele>474.9</ele>
        <time>2019-12-05T12:59:33.269Z</time>
      </trkpt>
      <trkpt lat="43.02505" lon="0.57284">
        <ele>475</ele>
        <time>2019-12-05T12:59:40.269Z</time>
      </trkpt>
      <trkpt lat="43.02511" lon="0.5728">
        <ele>475</ele>
        <time>2019-12-05T12:59:47.269Z</time>
      </trkpt>
      <trkpt lat="43.02518" lon="0.57278">
        <ele>475</ele>
        <time>2019-12-05T12:59:55.269Z</time>
      </trkpt>
      <trkpt lat="43.0253" lon="0.57274">
        <ele>475</ele>
        <time>2019-12-05T13:00:05.269Z</time>
      </trkpt>
      <trkpt lat="43.02536" lon="0.57274">
        <ele>467.8</ele>
        <time>2019-12-05T13:00:07.175Z</time>
      </trkpt>
      <trkpt lat="43.0254" lon="0.57272">
        <ele>468</ele>
        <time>2019-12-05T13:00:08.438Z</time>
      </trkpt>
      <trkpt lat="43.02552" lon="0.57269">
        <ele>469</ele>
        <time>2019-12-05T13:00:12.164Z</time>
      </trkpt>
      <trkpt lat="43.02557" lon="0.57273">
        <ele>469.3</ele>
        <time>2019-12-05T13:00:13.955Z</time>
      </trkpt>
      <trkpt lat="43.02557" lon="0.57268">
        <ele>469.8</ele>
        <time>2019-12-05T13:00:15.204Z</time>
      </trkpt>
      <trkpt lat="43.02558" lon="0.57262">
        <ele>469.8</ele>
        <time>2019-12-05T13:00:16.573Z</time>
      </trkpt>
      <trkpt lat="43.02558" lon="0.57255">
        <ele>470.3</ele>
        <time>2019-12-05T13:00:18.033Z</time>
      </trkpt>
      <trkpt lat="43.02556" lon="0.57242">
        <ele>471</ele>
        <time>2019-12-05T13:00:21.125Z</time>
      </trkpt>
      <trkpt lat="43.02548" lon="0.57222">
        <ele>472</ele>
        <time>2019-12-05T13:00:26.126Z</time>
      </trkpt>
      <trkpt lat="43.02545" lon="0.57207">
        <ele>472.8</ele>
        <time>2019-12-05T13:00:37.208Z</time>
      </trkpt>
      <trkpt lat="43.02544" lon="0.572">
        <ele>473.3</ele>
        <time>2019-12-05T13:00:42.181Z</time>
      </trkpt>
      <trkpt lat="43.02541" lon="0.57178">
        <ele>474.8</ele>
        <time>2019-12-05T13:00:57.923Z</time>
      </trkpt>
      <trkpt lat="43.02539" lon="0.57147">
        <ele>476</ele>
        <time>2019-12-05T13:01:19.197Z</time>
      </trkpt>
      <trkpt lat="43.0254" lon="0.57117">
        <ele>477.3</ele>
        <time>2019-12-05T13:01:40.605Z</time>
      </trkpt>
      <trkpt lat="43.02542" lon="0.571">
        <ele>478</ele>
        <time>2019-12-05T13:01:52.195Z</time>
      </trkpt>
      <trkpt lat="43.02545" lon="0.57083">
        <ele>478.8</ele>
        <time>2019-12-05T13:02:04.563Z</time>
      </trkpt>
      <trkpt lat="43.02544" lon="0.57065">
        <ele>479</ele>
        <time>2019-12-05T13:02:17.215Z</time>
      </trkpt>
      <trkpt lat="43.02537" lon="0.57026">
        <ele>479.3</ele>
        <time>2019-12-05T13:02:45.180Z</time>
      </trkpt>
      <trkpt lat="43.02536" lon="0.57011">
        <ele>479.3</ele>
        <time>2019-12-05T13:02:55.761Z</time>
      </trkpt>
      <trkpt lat="43.02536" lon="0.57008">
        <ele>480</ele>
        <time>2019-12-05T13:02:58.142Z</time>
      </trkpt>
      <trkpt lat="43.02537" lon="0.56994">
        <ele>480</ele>
        <time>2019-12-05T13:03:07.901Z</time>
      </trkpt>
      <trkpt lat="43.0254" lon="0.56983">
        <ele>481</ele>
        <time>2019-12-05T13:03:16.096Z</time>
      </trkpt>
      <trkpt lat="43.02541" lon="0.5698">
        <ele>482.8</ele>
        <time>2019-12-05T13:03:18.271Z</time>
      </trkpt>
      <trkpt lat="43.02546" lon="0.5696">
        <ele>481.6</ele>
        <time>2019-12-05T13:03:32.925Z</time>
      </trkpt>
      <trkpt lat="43.0255" lon="0.56944">
        <ele>482.2</ele>
        <time>2019-12-05T13:03:39.925Z</time>
      </trkpt>
      <trkpt lat="43.02554" lon="0.56929">
        <ele>483</ele>
        <time>2019-12-05T13:03:45.925Z</time>
      </trkpt>
      <trkpt lat="43.02559" lon="0.56914">
        <ele>484.1</ele>
        <time>2019-12-05T13:03:52.925Z</time>
      </trkpt>
      <trkpt lat="43.02567" lon="0.56896">
        <ele>485.1</ele>
        <time>2019-12-05T13:03:59.925Z</time>
      </trkpt>
      <trkpt lat="43.02568" lon="0.56895">
        <ele>485.1</ele>
        <time>2019-12-05T13:04:00.925Z</time>
      </trkpt>
      <trkpt lat="43.02569" lon="0.56893">
        <ele>485.2</ele>
        <time>2019-12-05T13:04:01.925Z</time>
      </trkpt>
      <trkpt lat="43.0258" lon="0.56883">
        <ele>485.3</ele>
        <time>2019-12-05T13:04:11.925Z</time>
      </trkpt>
      <trkpt lat="43.0259" lon="0.56876">
        <ele>485.2</ele>
        <time>2019-12-05T13:04:19.925Z</time>
      </trkpt>
      <trkpt lat="43.02597" lon="0.56869">
        <ele>485.1</ele>
        <time>2019-12-05T13:04:27.925Z</time>
      </trkpt>
      <trkpt lat="43.02599" lon="0.56865">
        <ele>485</ele>
        <time>2019-12-05T13:04:30.925Z</time>
      </trkpt>
      <trkpt lat="43.026" lon="0.56865">
        <ele>485</ele>
        <time>2019-12-05T13:04:31.925Z</time>
      </trkpt>
      <trkpt lat="43.02614" lon="0.5686">
        <ele>484.8</ele>
        <time>2019-12-05T13:04:41.925Z</time>
      </trkpt>
      <trkpt lat="43.02623" lon="0.56852">
        <ele>484.6</ele>
        <time>2019-12-05T13:04:49.925Z</time>
      </trkpt>
      <trkpt lat="43.02632" lon="0.56841">
        <ele>484.2</ele>
        <time>2019-12-05T13:04:57.925Z</time>
      </trkpt>
      <trkpt lat="43.02638" lon="0.56833">
        <ele>483.8</ele>
        <time>2019-12-05T13:05:05.925Z</time>
      </trkpt>
      <trkpt lat="43.02648" lon="0.56827">
        <ele>483.4</ele>
        <time>2019-12-05T13:05:15.925Z</time>
      </trkpt>
      <trkpt lat="43.02657" lon="0.56826">
        <ele>482.9</ele>
        <time>2019-12-05T13:05:24.925Z</time>
      </trkpt>
      <trkpt lat="43.02667" lon="0.56834">
        <ele>482.4</ele>
        <time>2019-12-05T13:05:32.925Z</time>
      </trkpt>
      <trkpt lat="43.02678" lon="0.56833">
        <ele>481.8</ele>
        <time>2019-12-05T13:05:40.925Z</time>
      </trkpt>
      <trkpt lat="43.02691" lon="0.56831">
        <ele>480.8</ele>
        <time>2019-12-05T13:05:49.925Z</time>
      </trkpt>
      <trkpt lat="43.02707" lon="0.56833">
        <ele>479.6</ele>
        <time>2019-12-05T13:05:57.925Z</time>
      </trkpt>
      <trkpt lat="43.02722" lon="0.56836">
        <ele>478.5</ele>
        <time>2019-12-05T13:06:04.925Z</time>
      </trkpt>
      <trkpt lat="43.02739" lon="0.56842">
        <ele>477.6</ele>
        <time>2019-12-05T13:06:13.925Z</time>
      </trkpt>
      <trkpt lat="43.02748" lon="0.56847">
        <ele>477.2</ele>
        <time>2019-12-05T13:06:21.925Z</time>
      </trkpt>
      <trkpt lat="43.02754" lon="0.56851">
        <ele>477</ele>
        <time>2019-12-05T13:06:26.925Z</time>
      </trkpt>
      <trkpt lat="43.02755" lon="0.56853">
        <ele>476.9</ele>
        <time>2019-12-05T13:06:27.925Z</time>
      </trkpt>
      <trkpt lat="43.02767" lon="0.56863">
        <ele>476.5</ele>
        <time>2019-12-05T13:06:36.925Z</time>
      </trkpt>
      <trkpt lat="43.02775" lon="0.56867">
        <ele>476.3</ele>
        <time>2019-12-05T13:06:45.925Z</time>
      </trkpt>
      <trkpt lat="43.02789" lon="0.56867">
        <ele>475.9</ele>
        <time>2019-12-05T13:06:54.925Z</time>
      </trkpt>
      <trkpt lat="43.028" lon="0.56872">
        <ele>475.7</ele>
        <time>2019-12-05T13:07:01.925Z</time>
      </trkpt>
      <trkpt lat="43.02801" lon="0.56872">
        <ele>475.5</ele>
        <time>2019-12-05T13:07:02.925Z</time>
      </trkpt>
      <trkpt lat="43.02803" lon="0.56874">
        <ele>475.4</ele>
        <time>2019-12-05T13:07:03.925Z</time>
      </trkpt>
      <trkpt lat="43.02805" lon="0.56876">
        <ele>475.2</ele>
        <time>2019-12-05T13:07:04.925Z</time>
      </trkpt>
      <trkpt lat="43.02807" lon="0.56877">
        <ele>475</ele>
        <time>2019-12-05T13:07:05.925Z</time>
      </trkpt>
      <trkpt lat="43.02821" lon="0.56882">
        <ele>474</ele>
        <time>2019-12-05T13:07:11.925Z</time>
      </trkpt>
      <trkpt lat="43.02827" lon="0.56891">
        <ele>473.4</ele>
        <time>2019-12-05T13:07:19.925Z</time>
      </trkpt>
      <trkpt lat="43.02842" lon="0.56903">
        <ele>472.1</ele>
        <time>2019-12-05T13:07:29.925Z</time>
      </trkpt>
      <trkpt lat="43.02853" lon="0.56912">
        <ele>471.3</ele>
        <time>2019-12-05T13:07:37.925Z</time>
      </trkpt>
      <trkpt lat="43.02862" lon="0.56924">
        <ele>470.5</ele>
        <time>2019-12-05T13:07:47.925Z</time>
      </trkpt>
      <trkpt lat="43.02872" lon="0.56938">
        <ele>469.7</ele>
        <time>2019-12-05T13:07:58.925Z</time>
      </trkpt>
      <trkpt lat="43.02887" lon="0.56947">
        <ele>468.7</ele>
        <time>2019-12-05T13:08:07.925Z</time>
      </trkpt>
      <trkpt lat="43.02899" lon="0.56952">
        <ele>467.9</ele>
        <time>2019-12-05T13:08:15.925Z</time>
      </trkpt>
      <trkpt lat="43.02903" lon="0.56963">
        <ele>467.4</ele>
        <time>2019-12-05T13:08:26.925Z</time>
      </trkpt>
      <trkpt lat="43.02903" lon="0.56964">
        <ele>467.4</ele>
        <time>2019-12-05T13:08:27.925Z</time>
      </trkpt>
      <trkpt lat="43.02902" lon="0.56965">
        <ele>467.3</ele>
        <time>2019-12-05T13:08:28.925Z</time>
      </trkpt>
      <trkpt lat="43.029" lon="0.56966">
        <ele>467.2</ele>
        <time>2019-12-05T13:08:29.925Z</time>
      </trkpt>
      <trkpt lat="43.02899" lon="0.5697">
        <ele>467</ele>
        <time>2019-12-05T13:08:34.925Z</time>
      </trkpt>
      <trkpt lat="43.02908" lon="0.56979">
        <ele>466.5</ele>
        <time>2019-12-05T13:08:44.925Z</time>
      </trkpt>
      <trkpt lat="43.0292" lon="0.56987">
        <ele>465.7</ele>
        <time>2019-12-05T13:08:55.925Z</time>
      </trkpt>
      <trkpt lat="43.02928" lon="0.56993">
        <ele>465.4</ele>
        <time>2019-12-05T13:09:03.925Z</time>
      </trkpt>
      <trkpt lat="43.02941" lon="0.57002">
        <ele>464.7</ele>
        <time>2019-12-05T13:09:12.925Z</time>
      </trkpt>
      <trkpt lat="43.02954" lon="0.57014">
        <ele>464</ele>
        <time>2019-12-05T13:09:22.925Z</time>
      </trkpt>
      <trkpt lat="43.02961" lon="0.57026">
        <ele>463.5</ele>
        <time>2019-12-05T13:09:31.925Z</time>
      </trkpt>
      <trkpt lat="43.02967" lon="0.57035">
        <ele>463.1</ele>
        <time>2019-12-05T13:09:40.925Z</time>
      </trkpt>
      <trkpt lat="43.02975" lon="0.57047">
        <ele>462.5</ele>
        <time>2019-12-05T13:09:50.925Z</time>
      </trkpt>
      <trkpt lat="43.02976" lon="0.57049">
        <ele>462.5</ele>
        <time>2019-12-05T13:09:51.925Z</time>
      </trkpt>
      <trkpt lat="43.02978" lon="0.57051">
        <ele>462.4</ele>
        <time>2019-12-05T13:09:52.925Z</time>
      </trkpt>
      <trkpt lat="43.02979" lon="0.57052">
        <ele>462.3</ele>
        <time>2019-12-05T13:09:53.925Z</time>
      </trkpt>
      <trkpt lat="43.0298" lon="0.57054">
        <ele>462.3</ele>
        <time>2019-12-05T13:09:54.925Z</time>
      </trkpt>
      <trkpt lat="43.0298" lon="0.57056">
        <ele>462.2</ele>
        <time>2019-12-05T13:09:55.925Z</time>
      </trkpt>
      <trkpt lat="43.02988" lon="0.57068">
        <ele>461.6</ele>
        <time>2019-12-05T13:10:03.925Z</time>
      </trkpt>
      <trkpt lat="43.02991" lon="0.57086">
        <ele>461.1</ele>
        <time>2019-12-05T13:10:12.925Z</time>
      </trkpt>
      <trkpt lat="43.02993" lon="0.571">
        <ele>460.7</ele>
        <time>2019-12-05T13:10:19.925Z</time>
      </trkpt>
      <trkpt lat="43.02992" lon="0.57116">
        <ele>460.3</ele>
        <time>2019-12-05T13:10:28.925Z</time>
      </trkpt>
      <trkpt lat="43.02989" lon="0.57129">
        <ele>459.9</ele>
        <time>2019-12-05T13:10:35.925Z</time>
      </trkpt>
      <trkpt lat="43.02983" lon="0.57139">
        <ele>459.6</ele>
        <time>2019-12-05T13:10:43.925Z</time>
      </trkpt>
      <trkpt lat="43.02977" lon="0.57148">
        <ele>459.4</ele>
        <time>2019-12-05T13:10:51.925Z</time>
      </trkpt>
      <trkpt lat="43.02969" lon="0.57159">
        <ele>459.5</ele>
        <time>2019-12-05T13:11:00.925Z</time>
      </trkpt>
      <trkpt lat="43.02968" lon="0.57163">
        <ele>459.5</ele>
        <time>2019-12-05T13:11:03.925Z</time>
      </trkpt>
      <trkpt lat="43.02966" lon="0.57176">
        <ele>459.8</ele>
        <time>2019-12-05T13:11:11.925Z</time>
      </trkpt>
      <trkpt lat="43.02961" lon="0.57191">
        <ele>460.1</ele>
        <time>2019-12-05T13:11:20.925Z</time>
      </trkpt>
      <trkpt lat="43.02956" lon="0.57206">
        <ele>460.6</ele>
        <time>2019-12-05T13:11:29.925Z</time>
      </trkpt>
      <trkpt lat="43.02951" lon="0.5722">
        <ele>461</ele>
        <time>2019-12-05T13:11:38.925Z</time>
      </trkpt>
      <trkpt lat="43.02946" lon="0.57229">
        <ele>461.3</ele>
        <time>2019-12-05T13:11:45.925Z</time>
      </trkpt>
      <trkpt lat="43.02936" lon="0.57242">
        <ele>461.4</ele>
        <time>2019-12-05T13:11:54.925Z</time>
      </trkpt>
      <trkpt lat="43.02933" lon="0.57243">
        <ele>461.4</ele>
        <time>2019-12-05T13:11:58.925Z</time>
      </trkpt>
      <trkpt lat="43.02932" lon="0.57243">
        <ele>461.4</ele>
        <time>2019-12-05T13:11:59.925Z</time>
      </trkpt>
      <trkpt lat="43.02931" lon="0.57244">
        <ele>461.4</ele>
        <time>2019-12-05T13:12:00.925Z</time>
      </trkpt>
      <trkpt lat="43.02931" lon="0.57245">
        <ele>461.4</ele>
        <time>2019-12-05T13:12:01.925Z</time>
      </trkpt>
      <trkpt lat="43.0293" lon="0.57246">
        <ele>461.4</ele>
        <time>2019-12-05T13:12:02.925Z</time>
      </trkpt>
      <trkpt lat="43.02924" lon="0.57258">
        <ele>461.5</ele>
        <time>2019-12-05T13:12:11.925Z</time>
      </trkpt>
      <trkpt lat="43.02925" lon="0.57264">
        <ele>461.4</ele>
        <time>2019-12-05T13:12:18.925Z</time>
      </trkpt>
    </trkseg>
  </trk>
</gpx>